<?xml version="1.0" encoding="UTF-8" standalone="no" ?>
<gpx xmlns="http://www.topografix.com/GPX/1/1" creator="www.plotaroute.com" version="1.1"  xmlns:xsi="http://www.w3.org/2001/XMLSchema-instance" xsi:schemaLocation="http://www.topografix.com/GPX/1/1 http://www.topografix.com/GPX/1/1/gpx.xsd">
<metadata>
<desc>Route created on plotaroute.com</desc>
</metadata>
<trk>
<name>1990-lejog-day12</name>
<trkseg>
<trkpt lat="56.72136" lon="-3.769699">
<ele>128</ele>
<time>2020-08-28T00:00:00Z</time></trkpt>
<trkpt lat="56.722624" lon="-3.772533">
<ele>128</ele>
<time>2020-08-28T00:02:40Z</time></trkpt>
<trkpt lat="56.722897" lon="-3.772963">
<ele>128</ele>
<time>2020-08-28T00:03:07Z</time></trkpt>
<trkpt lat="56.723157" lon="-3.773297">
<ele>127</ele>
<time>2020-08-28T00:03:32Z</time></trkpt>
<trkpt lat="56.723792" lon="-3.773791">
<ele>125</ele>
<time>2020-08-28T00:04:24Z</time></trkpt>
<trkpt lat="56.724752" lon="-3.774385">
<ele>124</ele>
<time>2020-08-28T00:05:47Z</time></trkpt>
<trkpt lat="56.725696" lon="-3.774812">
<ele>125</ele>
<time>2020-08-28T00:07:11Z</time></trkpt>
<trkpt lat="56.725947" lon="-3.774871">
<ele>125</ele>
<time>2020-08-28T00:07:33Z</time></trkpt>
<trkpt lat="56.726191" lon="-3.774864">
<ele>127</ele>
<time>2020-08-28T00:07:57Z</time></trkpt>
<trkpt lat="56.726527" lon="-3.774783">
<ele>129</ele>
<time>2020-08-28T00:08:33Z</time></trkpt>
<trkpt lat="56.726867" lon="-3.774613">
<ele>131</ele>
<time>2020-08-28T00:09:09Z</time></trkpt>
<trkpt lat="56.727333" lon="-3.774447">
<ele>133</ele>
<time>2020-08-28T00:09:59Z</time></trkpt>
<trkpt lat="56.727612" lon="-3.774395">
<ele>134</ele>
<time>2020-08-28T00:10:28Z</time></trkpt>
<trkpt lat="56.727886" lon="-3.774419">
<ele>134</ele>
<time>2020-08-28T00:10:56Z</time></trkpt>
<trkpt lat="56.728301" lon="-3.774476">
<ele>133</ele>
<time>2020-08-28T00:11:32Z</time></trkpt>
<trkpt lat="56.728698" lon="-3.774467">
<ele>134</ele>
<time>2020-08-28T00:12:06Z</time></trkpt>
<trkpt lat="56.7291403" lon="-3.7744131">
<ele>135</ele>
<time>2020-08-28T00:12:44Z</time></trkpt>
<trkpt lat="56.730906" lon="-3.774183">
<ele>133</ele>
<time>2020-08-28T00:15:06Z</time></trkpt>
<trkpt lat="56.731092" lon="-3.774099">
<ele>132</ele>
<time>2020-08-28T00:15:21Z</time></trkpt>
<trkpt lat="56.732916" lon="-3.772927">
<ele>137</ele>
<time>2020-08-28T00:18:24Z</time></trkpt>
<trkpt lat="56.733889" lon="-3.772085">
<ele>143</ele>
<time>2020-08-28T00:20:20Z</time></trkpt>
<trkpt lat="56.734899" lon="-3.771148">
<ele>151</ele>
<time>2020-08-28T00:22:28Z</time></trkpt>
<trkpt lat="56.735159" lon="-3.771038">
<ele>151</ele>
<time>2020-08-28T00:22:57Z</time></trkpt>
<trkpt lat="56.735429" lon="-3.770878">
<ele>153</ele>
<time>2020-08-28T00:23:26Z</time></trkpt>
<trkpt lat="56.735711" lon="-3.770654">
<ele>156</ele>
<time>2020-08-28T00:23:57Z</time></trkpt>
<trkpt lat="56.735863" lon="-3.770494">
<ele>158</ele>
<time>2020-08-28T00:24:15Z</time></trkpt>
<trkpt lat="56.735898" lon="-3.770536">
<ele>157</ele>
<time>2020-08-28T00:24:19Z</time></trkpt>
<trkpt lat="56.735984" lon="-3.770444">
<ele>158</ele>
<time>2020-08-28T00:24:29Z</time></trkpt>
<trkpt lat="56.736102" lon="-3.77037">
<ele>159</ele>
<time>2020-08-28T00:24:42Z</time></trkpt>
<trkpt lat="56.737389" lon="-3.770091">
<ele>161</ele>
<time>2020-08-28T00:26:41Z</time></trkpt>
<trkpt lat="56.737703" lon="-3.769972">
<ele>162</ele>
<time>2020-08-28T00:27:06Z</time></trkpt>
<trkpt lat="56.738092" lon="-3.769883">
<ele>162</ele>
<time>2020-08-28T00:27:37Z</time></trkpt>
<trkpt lat="56.738531" lon="-3.769913">
<ele>159</ele>
<time>2020-08-28T00:28:12Z</time></trkpt>
<trkpt lat="56.738741" lon="-3.770007">
<ele>157</ele>
<time>2020-08-28T00:28:28Z</time></trkpt>
<trkpt lat="56.73964" lon="-3.770185">
<ele>150</ele>
<time>2020-08-28T00:29:30Z</time></trkpt>
<trkpt lat="56.741133" lon="-3.770558">
<ele>146</ele>
<time>2020-08-28T00:31:32Z</time></trkpt>
<trkpt lat="56.74195" lon="-3.770842">
<ele>150</ele>
<time>2020-08-28T00:32:57Z</time></trkpt>
<trkpt lat="56.742436" lon="-3.771231">
<ele>153</ele>
<time>2020-08-28T00:33:49Z</time></trkpt>
<trkpt lat="56.742456" lon="-3.771164">
<ele>155</ele>
<time>2020-08-28T00:33:52Z</time></trkpt>
<trkpt lat="56.742588" lon="-3.771279">
<ele>155</ele>
<time>2020-08-28T00:34:03Z</time></trkpt>
<trkpt lat="56.743105" lon="-3.77187">
<ele>153</ele>
<time>2020-08-28T00:34:49Z</time></trkpt>
<trkpt lat="56.743422" lon="-3.772317">
<ele>150</ele>
<time>2020-08-28T00:35:19Z</time></trkpt>
<trkpt lat="56.743496" lon="-3.772459">
<ele>149</ele>
<time>2020-08-28T00:35:27Z</time></trkpt>
<trkpt lat="56.743548" lon="-3.772645">
<ele>149</ele>
<time>2020-08-28T00:35:36Z</time></trkpt>
<trkpt lat="56.743602" lon="-3.772916">
<ele>149</ele>
<time>2020-08-28T00:35:47Z</time></trkpt>
<trkpt lat="56.743601" lon="-3.77313">
<ele>149</ele>
<time>2020-08-28T00:35:56Z</time></trkpt>
<trkpt lat="56.743543" lon="-3.773696">
<ele>148</ele>
<time>2020-08-28T00:36:18Z</time></trkpt>
<trkpt lat="56.74349" lon="-3.774456">
<ele>146</ele>
<time>2020-08-28T00:36:45Z</time></trkpt>
<trkpt lat="56.743522" lon="-3.775075">
<ele>143</ele>
<time>2020-08-28T00:37:06Z</time></trkpt>
<trkpt lat="56.743633" lon="-3.775914">
<ele>137</ele>
<time>2020-08-28T00:37:36Z</time></trkpt>
<trkpt lat="56.743821" lon="-3.776962">
<ele>131</ele>
<time>2020-08-28T00:38:16Z</time></trkpt>
<trkpt lat="56.74392" lon="-3.77735">
<ele>129</ele>
<time>2020-08-28T00:38:33Z</time></trkpt>
<trkpt lat="56.744041" lon="-3.777743">
<ele>127</ele>
<time>2020-08-28T00:38:51Z</time></trkpt>
<trkpt lat="56.744194" lon="-3.778011">
<ele>127</ele>
<time>2020-08-28T00:39:06Z</time></trkpt>
<trkpt lat="56.744745" lon="-3.778592">
<ele>127</ele>
<time>2020-08-28T00:39:53Z</time></trkpt>
<trkpt lat="56.744955" lon="-3.778883">
<ele>126</ele>
<time>2020-08-28T00:40:12Z</time></trkpt>
<trkpt lat="56.745108" lon="-3.779157">
<ele>125</ele>
<time>2020-08-28T00:40:27Z</time></trkpt>
<trkpt lat="56.745193" lon="-3.77944">
<ele>124</ele>
<time>2020-08-28T00:40:40Z</time></trkpt>
<trkpt lat="56.745255" lon="-3.779849">
<ele>123</ele>
<time>2020-08-28T00:40:57Z</time></trkpt>
<trkpt lat="56.745306" lon="-3.780413">
<ele>122</ele>
<time>2020-08-28T00:41:19Z</time></trkpt>
<trkpt lat="56.745301" lon="-3.780824">
<ele>122</ele>
<time>2020-08-28T00:41:35Z</time></trkpt>
<trkpt lat="56.745276" lon="-3.781232">
<ele>120</ele>
<time>2020-08-28T00:41:52Z</time></trkpt>
<trkpt lat="56.745276" lon="-3.781679">
<ele>118</ele>
<time>2020-08-28T00:42:09Z</time></trkpt>
<trkpt lat="56.745347" lon="-3.782">
<ele>118</ele>
<time>2020-08-28T00:42:23Z</time></trkpt>
<trkpt lat="56.747991" lon="-3.789681">
<ele>120</ele>
<time>2020-08-28T00:49:15Z</time></trkpt>
<trkpt lat="56.749336" lon="-3.793833">
<ele>122</ele>
<time>2020-08-28T00:53:11Z</time></trkpt>
<trkpt lat="56.750759" lon="-3.79772">
<ele>127</ele>
<time>2020-08-28T00:57:06Z</time></trkpt>
<trkpt lat="56.750933" lon="-3.798351">
<ele>126</ele>
<time>2020-08-28T00:57:37Z</time></trkpt>
<trkpt lat="56.751289" lon="-3.799866">
<ele>128</ele>
<time>2020-08-28T00:58:50Z</time></trkpt>
<trkpt lat="56.751659" lon="-3.801932">
<ele>120</ele>
<time>2020-08-28T01:00:19Z</time></trkpt>
<trkpt lat="56.751892" lon="-3.803017">
<ele>122</ele>
<time>2020-08-28T01:01:07Z</time></trkpt>
<trkpt lat="56.752058" lon="-3.803587">
<ele>123</ele>
<time>2020-08-28T01:01:37Z</time></trkpt>
<trkpt lat="56.752707" lon="-3.80517">
<ele>127</ele>
<time>2020-08-28T01:03:17Z</time></trkpt>
<trkpt lat="56.75358" lon="-3.806791">
<ele>123</ele>
<time>2020-08-28T01:05:04Z</time></trkpt>
<trkpt lat="56.754417" lon="-3.808405">
<ele>127</ele>
<time>2020-08-28T01:06:41Z</time></trkpt>
<trkpt lat="56.756345" lon="-3.812897">
<ele>123</ele>
<time>2020-08-28T01:10:44Z</time></trkpt>
<trkpt lat="56.756943" lon="-3.814191">
<ele>122</ele>
<time>2020-08-28T01:11:56Z</time></trkpt>
<trkpt lat="56.757536" lon="-3.815414">
<ele>121</ele>
<time>2020-08-28T01:13:08Z</time></trkpt>
<trkpt lat="56.7584" lon="-3.81705">
<ele>123</ele>
<time>2020-08-28T01:14:54Z</time></trkpt>
<trkpt lat="56.758603" lon="-3.817549">
<ele>126</ele>
<time>2020-08-28T01:15:25Z</time></trkpt>
<trkpt lat="56.758732" lon="-3.817955">
<ele>126</ele>
<time>2020-08-28T01:15:49Z</time></trkpt>
<trkpt lat="56.759584" lon="-3.819597">
<ele>126</ele>
<time>2020-08-28T01:17:37Z</time></trkpt>
<trkpt lat="56.759875" lon="-3.820057">
<ele>127</ele>
<time>2020-08-28T01:18:08Z</time></trkpt>
<trkpt lat="56.760076" lon="-3.820307">
<ele>128</ele>
<time>2020-08-28T01:18:27Z</time></trkpt>
<trkpt lat="56.761047" lon="-3.821984">
<ele>126</ele>
<time>2020-08-28T01:20:28Z</time></trkpt>
<trkpt lat="56.761199" lon="-3.822336">
<ele>127</ele>
<time>2020-08-28T01:20:54Z</time></trkpt>
<trkpt lat="56.761679" lon="-3.824091">
<ele>134</ele>
<time>2020-08-28T01:22:50Z</time></trkpt>
<trkpt lat="56.761776" lon="-3.82452">
<ele>135</ele>
<time>2020-08-28T01:23:10Z</time></trkpt>
<trkpt lat="56.761879" lon="-3.825103">
<ele>134</ele>
<time>2020-08-28T01:23:37Z</time></trkpt>
<trkpt lat="56.762014" lon="-3.825506">
<ele>134</ele>
<time>2020-08-28T01:23:57Z</time></trkpt>
<trkpt lat="56.762103" lon="-3.825848">
<ele>133</ele>
<time>2020-08-28T01:24:14Z</time></trkpt>
<trkpt lat="56.762208" lon="-3.826491">
<ele>132</ele>
<time>2020-08-28T01:24:43Z</time></trkpt>
<trkpt lat="56.762331" lon="-3.827076">
<ele>133</ele>
<time>2020-08-28T01:25:10Z</time></trkpt>
<trkpt lat="56.762592" lon="-3.827616">
<ele>134</ele>
<time>2020-08-28T01:25:42Z</time></trkpt>
<trkpt lat="56.763576" lon="-3.829448">
<ele>133</ele>
<time>2020-08-28T01:27:39Z</time></trkpt>
<trkpt lat="56.764376" lon="-3.830777">
<ele>135</ele>
<time>2020-08-28T01:29:09Z</time></trkpt>
<trkpt lat="56.764532" lon="-3.830968">
<ele>135</ele>
<time>2020-08-28T01:29:24Z</time></trkpt>
<trkpt lat="56.764743" lon="-3.831143">
<ele>136</ele>
<time>2020-08-28T01:29:44Z</time></trkpt>
<trkpt lat="56.764931" lon="-3.831377">
<ele>136</ele>
<time>2020-08-28T01:30:03Z</time></trkpt>
<trkpt lat="56.76515" lon="-3.831795">
<ele>135</ele>
<time>2020-08-28T01:30:29Z</time></trkpt>
<trkpt lat="56.767565" lon="-3.838805">
<ele>140</ele>
<time>2020-08-28T01:36:56Z</time></trkpt>
<trkpt lat="56.76774" lon="-3.839425">
<ele>139</ele>
<time>2020-08-28T01:37:25Z</time></trkpt>
<trkpt lat="56.767785" lon="-3.839672">
<ele>138</ele>
<time>2020-08-28T01:37:35Z</time></trkpt>
<trkpt lat="56.767804" lon="-3.839857">
<ele>138</ele>
<time>2020-08-28T01:37:43Z</time></trkpt>
<trkpt lat="56.767803" lon="-3.840187">
<ele>136</ele>
<time>2020-08-28T01:37:56Z</time></trkpt>
<trkpt lat="56.76779" lon="-3.840322">
<ele>136</ele>
<time>2020-08-28T01:38:02Z</time></trkpt>
<trkpt lat="56.767742" lon="-3.840567">
<ele>135</ele>
<time>2020-08-28T01:38:12Z</time></trkpt>
<trkpt lat="56.767165" lon="-3.842804">
<ele>134</ele>
<time>2020-08-28T01:39:59Z</time></trkpt>
<trkpt lat="56.766307" lon="-3.84592">
<ele>134</ele>
<time>2020-08-28T01:42:31Z</time></trkpt>
<trkpt lat="56.766261" lon="-3.846141">
<ele>134</ele>
<time>2020-08-28T01:42:41Z</time></trkpt>
<trkpt lat="56.766006" lon="-3.848048">
<ele>132</ele>
<time>2020-08-28T01:44:09Z</time></trkpt>
<trkpt lat="56.76582" lon="-3.849631">
<ele>133</ele>
<time>2020-08-28T01:45:23Z</time></trkpt>
<trkpt lat="56.765803" lon="-3.850407">
<ele>134</ele>
<time>2020-08-28T01:45:58Z</time></trkpt>
<trkpt lat="56.765817" lon="-3.851195">
<ele>134</ele>
<time>2020-08-28T01:46:34Z</time></trkpt>
<trkpt lat="56.76591" lon="-3.852948">
<ele>137</ele>
<time>2020-08-28T01:47:54Z</time></trkpt>
<trkpt lat="56.765953" lon="-3.853383">
<ele>137</ele>
<time>2020-08-28T01:48:14Z</time></trkpt>
<trkpt lat="56.766275" lon="-3.855853">
<ele>130</ele>
<time>2020-08-28T01:50:01Z</time></trkpt>
<trkpt lat="56.766448" lon="-3.85751">
<ele>131</ele>
<time>2020-08-28T01:51:11Z</time></trkpt>
<trkpt lat="56.767112" lon="-3.863754">
<ele>130</ele>
<time>2020-08-28T01:55:50Z</time></trkpt>
<trkpt lat="56.767405" lon="-3.870239">
<ele>133</ele>
<time>2020-08-28T02:00:51Z</time></trkpt>
<trkpt lat="56.768767" lon="-3.881519">
<ele>136</ele>
<time>2020-08-28T02:09:44Z</time></trkpt>
<trkpt lat="56.769985" lon="-3.891361">
<ele>142</ele>
<time>2020-08-28T02:17:36Z</time></trkpt>
<trkpt lat="56.769943" lon="-3.891579">
<ele>142</ele>
<time>2020-08-28T02:17:47Z</time></trkpt>
<trkpt lat="56.76988" lon="-3.891728">
<ele>142</ele>
<time>2020-08-28T02:17:56Z</time></trkpt>
<trkpt lat="56.769757" lon="-3.891932">
<ele>142</ele>
<time>2020-08-28T02:18:11Z</time></trkpt>
<trkpt lat="56.769687" lon="-3.892116">
<ele>142</ele>
<time>2020-08-28T02:18:21Z</time></trkpt>
<trkpt lat="56.769668" lon="-3.892333">
<ele>142</ele>
<time>2020-08-28T02:18:31Z</time></trkpt>
<trkpt lat="56.769685" lon="-3.892594">
<ele>142</ele>
<time>2020-08-28T02:18:44Z</time></trkpt>
<trkpt lat="56.769749" lon="-3.893066">
<ele>143</ele>
<time>2020-08-28T02:19:07Z</time></trkpt>
<trkpt lat="56.770072" lon="-3.895287">
<ele>144</ele>
<time>2020-08-28T02:20:59Z</time></trkpt>
<trkpt lat="56.770146" lon="-3.896638">
<ele>144</ele>
<time>2020-08-28T02:22:08Z</time></trkpt>
<trkpt lat="56.77029" lon="-3.898244">
<ele>149</ele>
<time>2020-08-28T02:23:25Z</time></trkpt>
<trkpt lat="56.770296" lon="-3.898712">
<ele>149</ele>
<time>2020-08-28T02:23:45Z</time></trkpt>
<trkpt lat="56.770265" lon="-3.899164">
<ele>149</ele>
<time>2020-08-28T02:24:05Z</time></trkpt>
<trkpt lat="56.770081" lon="-3.900571">
<ele>148</ele>
<time>2020-08-28T02:25:07Z</time></trkpt>
<trkpt lat="56.769649" lon="-3.904851">
<ele>143</ele>
<time>2020-08-28T02:28:14Z</time></trkpt>
<trkpt lat="56.769606" lon="-3.905154">
<ele>143</ele>
<time>2020-08-28T02:28:28Z</time></trkpt>
<trkpt lat="56.769618" lon="-3.905838">
<ele>143</ele>
<time>2020-08-28T02:28:57Z</time></trkpt>
<trkpt lat="56.769908" lon="-3.908827">
<ele>144</ele>
<time>2020-08-28T02:31:15Z</time></trkpt>
<trkpt lat="56.771034" lon="-3.922328">
<ele>151</ele>
<time>2020-08-28T02:42:00Z</time></trkpt>
<trkpt lat="56.771359" lon="-3.926138">
<ele>159</ele>
<time>2020-08-28T02:45:28Z</time></trkpt>
<trkpt lat="56.771357" lon="-3.926531">
<ele>159</ele>
<time>2020-08-28T02:45:47Z</time></trkpt>
<trkpt lat="56.771328" lon="-3.926899">
<ele>159</ele>
<time>2020-08-28T02:46:06Z</time></trkpt>
<trkpt lat="56.7712514" lon="-3.9273045">
<ele>159</ele>
<time>2020-08-28T02:46:27Z</time></trkpt>
<trkpt lat="56.771188" lon="-3.927576">
<ele>159</ele>
<time>2020-08-28T02:46:41Z</time></trkpt>
<trkpt lat="56.771068" lon="-3.927955">
<ele>160</ele>
<time>2020-08-28T02:47:02Z</time></trkpt>
<trkpt lat="56.770937" lon="-3.928199">
<ele>160</ele>
<time>2020-08-28T02:47:18Z</time></trkpt>
<trkpt lat="56.770754" lon="-3.928468">
<ele>160</ele>
<time>2020-08-28T02:47:37Z</time></trkpt>
<trkpt lat="56.770647" lon="-3.928582">
<ele>160</ele>
<time>2020-08-28T02:47:47Z</time></trkpt>
<trkpt lat="56.77047" lon="-3.928701">
<ele>160</ele>
<time>2020-08-28T02:48:02Z</time></trkpt>
<trkpt lat="56.770334" lon="-3.928752">
<ele>159</ele>
<time>2020-08-28T02:48:13Z</time></trkpt>
<trkpt lat="56.770034" lon="-3.928776">
<ele>159</ele>
<time>2020-08-28T02:48:37Z</time></trkpt>
<trkpt lat="56.770015" lon="-3.929377">
<ele>159</ele>
<time>2020-08-28T02:49:03Z</time></trkpt>
<trkpt lat="56.769991" lon="-3.929498">
<ele>159</ele>
<time>2020-08-28T02:49:09Z</time></trkpt>
<trkpt lat="56.769639" lon="-3.930723">
<ele>160</ele>
<time>2020-08-28T02:50:12Z</time></trkpt>
<trkpt lat="56.768747" lon="-3.935187">
<ele>165</ele>
<time>2020-08-28T02:54:09Z</time></trkpt>
<trkpt lat="56.768727" lon="-3.935413">
<ele>165</ele>
<time>2020-08-28T02:54:22Z</time></trkpt>
<trkpt lat="56.768723" lon="-3.935788">
<ele>166</ele>
<time>2020-08-28T02:54:42Z</time></trkpt>
<trkpt lat="56.768848" lon="-3.939844">
<ele>172</ele>
<time>2020-08-28T02:58:10Z</time></trkpt>
<trkpt lat="56.768831" lon="-3.940268">
<ele>173</ele>
<time>2020-08-28T02:58:29Z</time></trkpt>
<trkpt lat="56.768793" lon="-3.940645">
<ele>173</ele>
<time>2020-08-28T02:58:45Z</time></trkpt>
<trkpt lat="56.768731" lon="-3.94102">
<ele>173</ele>
<time>2020-08-28T02:59:01Z</time></trkpt>
<trkpt lat="56.76863" lon="-3.941367">
<ele>173</ele>
<time>2020-08-28T02:59:17Z</time></trkpt>
<trkpt lat="56.768487" lon="-3.941744">
<ele>172</ele>
<time>2020-08-28T02:59:36Z</time></trkpt>
<trkpt lat="56.767915" lon="-3.94307">
<ele>166</ele>
<time>2020-08-28T03:00:45Z</time></trkpt>
<trkpt lat="56.767804" lon="-3.943403">
<ele>165</ele>
<time>2020-08-28T03:01:01Z</time></trkpt>
<trkpt lat="56.767728" lon="-3.943705">
<ele>164</ele>
<time>2020-08-28T03:01:14Z</time></trkpt>
<trkpt lat="56.767667" lon="-3.944023">
<ele>163</ele>
<time>2020-08-28T03:01:28Z</time></trkpt>
<trkpt lat="56.767603" lon="-3.94456">
<ele>163</ele>
<time>2020-08-28T03:01:50Z</time></trkpt>
<trkpt lat="56.767317" lon="-3.947878">
<ele>164</ele>
<time>2020-08-28T03:04:39Z</time></trkpt>
<trkpt lat="56.76731" lon="-3.948433">
<ele>166</ele>
<time>2020-08-28T03:05:12Z</time></trkpt>
<trkpt lat="56.767353" lon="-3.948996">
<ele>168</ele>
<time>2020-08-28T03:05:46Z</time></trkpt>
<trkpt lat="56.767392" lon="-3.949238">
<ele>169</ele>
<time>2020-08-28T03:06:02Z</time></trkpt>
<trkpt lat="56.767488" lon="-3.949628">
<ele>170</ele>
<time>2020-08-28T03:06:27Z</time></trkpt>
<trkpt lat="56.767577" lon="-3.949878">
<ele>172</ele>
<time>2020-08-28T03:06:46Z</time></trkpt>
<trkpt lat="56.767897" lon="-3.950559">
<ele>178</ele>
<time>2020-08-28T03:07:42Z</time></trkpt>
<trkpt lat="56.76805" lon="-3.950843">
<ele>181</ele>
<time>2020-08-28T03:08:06Z</time></trkpt>
<trkpt lat="56.768101" lon="-3.950992">
<ele>182</ele>
<time>2020-08-28T03:08:17Z</time></trkpt>
<trkpt lat="56.768126" lon="-3.951141">
<ele>182</ele>
<time>2020-08-28T03:08:27Z</time></trkpt>
<trkpt lat="56.768132" lon="-3.951316">
<ele>182</ele>
<time>2020-08-28T03:08:38Z</time></trkpt>
<trkpt lat="56.768076" lon="-3.952452">
<ele>182</ele>
<time>2020-08-28T03:09:49Z</time></trkpt>
<trkpt lat="56.768082" lon="-3.95277">
<ele>182</ele>
<time>2020-08-28T03:10:08Z</time></trkpt>
<trkpt lat="56.76818" lon="-3.954044">
<ele>184</ele>
<time>2020-08-28T03:11:19Z</time></trkpt>
<trkpt lat="56.76823" lon="-3.954512">
<ele>185</ele>
<time>2020-08-28T03:11:46Z</time></trkpt>
<trkpt lat="56.768237" lon="-3.954953">
<ele>186</ele>
<time>2020-08-28T03:12:10Z</time></trkpt>
<trkpt lat="56.768214" lon="-3.95513">
<ele>187</ele>
<time>2020-08-28T03:12:20Z</time></trkpt>
<trkpt lat="56.767988" lon="-3.956165">
<ele>189</ele>
<time>2020-08-28T03:13:22Z</time></trkpt>
<trkpt lat="56.767974" lon="-3.956567">
<ele>190</ele>
<time>2020-08-28T03:13:43Z</time></trkpt>
<trkpt lat="56.768015" lon="-3.956965">
<ele>191</ele>
<time>2020-08-28T03:14:05Z</time></trkpt>
<trkpt lat="56.768272" lon="-3.958107">
<ele>192</ele>
<time>2020-08-28T03:15:12Z</time></trkpt>
<trkpt lat="56.768888" lon="-3.960833">
<ele>201</ele>
<time>2020-08-28T03:17:59Z</time></trkpt>
<trkpt lat="56.768798" lon="-3.960967">
<ele>200</ele>
<time>2020-08-28T03:18:11Z</time></trkpt>
<trkpt lat="56.768935" lon="-3.961671">
<ele>201</ele>
<time>2020-08-28T03:18:55Z</time></trkpt>
<trkpt lat="56.769039" lon="-3.962129">
<ele>202</ele>
<time>2020-08-28T03:19:24Z</time></trkpt>
<trkpt lat="56.769399" lon="-3.963053">
<ele>207</ele>
<time>2020-08-28T03:20:22Z</time></trkpt>
<trkpt lat="56.769437" lon="-3.963285">
<ele>208</ele>
<time>2020-08-28T03:20:34Z</time></trkpt>
<trkpt lat="56.76944" lon="-3.963466">
<ele>208</ele>
<time>2020-08-28T03:20:43Z</time></trkpt>
<trkpt lat="56.769312" lon="-3.963882">
<ele>206</ele>
<time>2020-08-28T03:21:06Z</time></trkpt>
<trkpt lat="56.769304" lon="-3.964033">
<ele>206</ele>
<time>2020-08-28T03:21:14Z</time></trkpt>
<trkpt lat="56.769325" lon="-3.964181">
<ele>206</ele>
<time>2020-08-28T03:21:21Z</time></trkpt>
<trkpt lat="56.769787" lon="-3.965949">
<ele>208</ele>
<time>2020-08-28T03:22:56Z</time></trkpt>
<trkpt lat="56.770103" lon="-3.968434">
<ele>210</ele>
<time>2020-08-28T03:24:56Z</time></trkpt>
<trkpt lat="56.770523" lon="-3.970444">
<ele>207</ele>
<time>2020-08-28T03:26:28Z</time></trkpt>
<trkpt lat="56.770793" lon="-3.971875">
<ele>205</ele>
<time>2020-08-28T03:27:31Z</time></trkpt>
<trkpt lat="56.770988" lon="-3.972807">
<ele>203</ele>
<time>2020-08-28T03:28:13Z</time></trkpt>
<trkpt lat="56.771119" lon="-3.973567">
<ele>202</ele>
<time>2020-08-28T03:28:47Z</time></trkpt>
<trkpt lat="56.771254" lon="-3.974075">
<ele>203</ele>
<time>2020-08-28T03:29:11Z</time></trkpt>
<trkpt lat="56.771603" lon="-3.975217">
<ele>203</ele>
<time>2020-08-28T03:30:08Z</time></trkpt>
<trkpt lat="56.772039" lon="-3.976728">
<ele>205</ele>
<time>2020-08-28T03:31:34Z</time></trkpt>
<trkpt lat="56.772209" lon="-3.977376">
<ele>206</ele>
<time>2020-08-28T03:32:11Z</time></trkpt>
<trkpt lat="56.772554" lon="-3.978538">
<ele>207</ele>
<time>2020-08-28T03:33:17Z</time></trkpt>
<trkpt lat="56.772719" lon="-3.979018">
<ele>207</ele>
<time>2020-08-28T03:33:46Z</time></trkpt>
<trkpt lat="56.77299" lon="-3.979606">
<ele>209</ele>
<time>2020-08-28T03:34:25Z</time></trkpt>
<trkpt lat="56.774075" lon="-3.98161">
<ele>209</ele>
<time>2020-08-28T03:36:39Z</time></trkpt>
<trkpt lat="56.774342" lon="-3.982196">
<ele>208</ele>
<time>2020-08-28T03:37:12Z</time></trkpt>
<trkpt lat="56.774602" lon="-3.982576">
<ele>209</ele>
<time>2020-08-28T03:37:38Z</time></trkpt>
<trkpt lat="56.774793" lon="-3.982815">
<ele>210</ele>
<time>2020-08-28T03:37:56Z</time></trkpt>
<trkpt lat="56.775115" lon="-3.983299">
<ele>211</ele>
<time>2020-08-28T03:38:31Z</time></trkpt>
<trkpt lat="56.77527" lon="-3.98359">
<ele>213</ele>
<time>2020-08-28T03:38:51Z</time></trkpt>
<trkpt lat="56.77561" lon="-3.984432">
<ele>214</ele>
<time>2020-08-28T03:39:42Z</time></trkpt>
<trkpt lat="56.775724" lon="-3.985063">
<ele>212</ele>
<time>2020-08-28T03:40:14Z</time></trkpt>
<trkpt lat="56.775841" lon="-3.985489">
<ele>211</ele>
<time>2020-08-28T03:40:37Z</time></trkpt>
<trkpt lat="56.776051" lon="-3.986032">
<ele>213</ele>
<time>2020-08-28T03:41:10Z</time></trkpt>
<trkpt lat="56.776179" lon="-3.986496">
<ele>214</ele>
<time>2020-08-28T03:41:32Z</time></trkpt>
<trkpt lat="56.776415" lon="-3.988247">
<ele>214</ele>
<time>2020-08-28T03:42:50Z</time></trkpt>
<trkpt lat="56.776665" lon="-3.989517">
<ele>211</ele>
<time>2020-08-28T03:43:50Z</time></trkpt>
<trkpt lat="56.77731" lon="-3.992342">
<ele>214</ele>
<time>2020-08-28T03:46:14Z</time></trkpt>
<trkpt lat="56.777493" lon="-3.992806">
<ele>214</ele>
<time>2020-08-28T03:46:41Z</time></trkpt>
<trkpt lat="56.777906" lon="-3.993445">
<ele>216</ele>
<time>2020-08-28T03:47:28Z</time></trkpt>
<trkpt lat="56.778084" lon="-3.993817">
<ele>217</ele>
<time>2020-08-28T03:47:51Z</time></trkpt>
<trkpt lat="56.778412" lon="-3.99487">
<ele>216</ele>
<time>2020-08-28T03:48:48Z</time></trkpt>
<trkpt lat="56.778827" lon="-3.995995">
<ele>218</ele>
<time>2020-08-28T03:49:52Z</time></trkpt>
<trkpt lat="56.778933" lon="-3.99632">
<ele>218</ele>
<time>2020-08-28T03:50:10Z</time></trkpt>
<trkpt lat="56.779034" lon="-3.996709">
<ele>217</ele>
<time>2020-08-28T03:50:30Z</time></trkpt>
<trkpt lat="56.779133" lon="-3.996996">
<ele>217</ele>
<time>2020-08-28T03:50:46Z</time></trkpt>
<trkpt lat="56.779213" lon="-3.99741">
<ele>217</ele>
<time>2020-08-28T03:51:07Z</time></trkpt>
<trkpt lat="56.779311" lon="-3.997711">
<ele>217</ele>
<time>2020-08-28T03:51:23Z</time></trkpt>
<trkpt lat="56.779458" lon="-3.997999">
<ele>218</ele>
<time>2020-08-28T03:51:42Z</time></trkpt>
<trkpt lat="56.779661" lon="-3.998279">
<ele>218</ele>
<time>2020-08-28T03:52:03Z</time></trkpt>
<trkpt lat="56.780083" lon="-3.998768">
<ele>218</ele>
<time>2020-08-28T03:52:45Z</time></trkpt>
<trkpt lat="56.780728" lon="-3.999749">
<ele>218</ele>
<time>2020-08-28T03:53:55Z</time></trkpt>
<trkpt lat="56.781314" lon="-4.000688">
<ele>221</ele>
<time>2020-08-28T03:55:06Z</time></trkpt>
<trkpt lat="56.782135" lon="-4.0024">
<ele>225</ele>
<time>2020-08-28T03:57:09Z</time></trkpt>
<trkpt lat="56.782313" lon="-4.002918">
<ele>225</ele>
<time>2020-08-28T03:57:39Z</time></trkpt>
<trkpt lat="56.782536" lon="-4.003946">
<ele>222</ele>
<time>2020-08-28T03:58:30Z</time></trkpt>
<trkpt lat="56.782688" lon="-4.004838">
<ele>224</ele>
<time>2020-08-28T03:59:12Z</time></trkpt>
<trkpt lat="56.782869" lon="-4.005489">
<ele>226</ele>
<time>2020-08-28T03:59:45Z</time></trkpt>
<trkpt lat="56.782978" lon="-4.005764">
<ele>226</ele>
<time>2020-08-28T04:00:01Z</time></trkpt>
<trkpt lat="56.783313" lon="-4.006283">
<ele>226</ele>
<time>2020-08-28T04:00:48Z</time></trkpt>
<trkpt lat="56.78422" lon="-4.007364">
<ele>232</ele>
<time>2020-08-28T04:02:44Z</time></trkpt>
<trkpt lat="56.785972" lon="-4.009361">
<ele>241</ele>
<time>2020-08-28T04:06:15Z</time></trkpt>
<trkpt lat="56.786214" lon="-4.009747">
<ele>242</ele>
<time>2020-08-28T04:06:46Z</time></trkpt>
<trkpt lat="56.78683" lon="-4.011059">
<ele>243</ele>
<time>2020-08-28T04:08:14Z</time></trkpt>
<trkpt lat="56.787128" lon="-4.011614">
<ele>244</ele>
<time>2020-08-28T04:08:53Z</time></trkpt>
<trkpt lat="56.787522" lon="-4.012218">
<ele>246</ele>
<time>2020-08-28T04:09:39Z</time></trkpt>
<trkpt lat="56.787694" lon="-4.0124">
<ele>247</ele>
<time>2020-08-28T04:09:56Z</time></trkpt>
<trkpt lat="56.787896" lon="-4.012559">
<ele>247</ele>
<time>2020-08-28T04:10:14Z</time></trkpt>
<trkpt lat="56.788262" lon="-4.012802">
<ele>247</ele>
<time>2020-08-28T04:10:46Z</time></trkpt>
<trkpt lat="56.788446" lon="-4.012863">
<ele>247</ele>
<time>2020-08-28T04:11:02Z</time></trkpt>
<trkpt lat="56.78951" lon="-4.013006">
<ele>246</ele>
<time>2020-08-28T04:12:30Z</time></trkpt>
<trkpt lat="56.790945" lon="-4.013117">
<ele>246</ele>
<time>2020-08-28T04:14:25Z</time></trkpt>
<trkpt lat="56.79134" lon="-4.013122">
<ele>248</ele>
<time>2020-08-28T04:14:58Z</time></trkpt>
<trkpt lat="56.791652" lon="-4.013166">
<ele>249</ele>
<time>2020-08-28T04:15:26Z</time></trkpt>
<trkpt lat="56.79183" lon="-4.013277">
<ele>251</ele>
<time>2020-08-28T04:15:43Z</time></trkpt>
<trkpt lat="56.792005" lon="-4.013481">
<ele>251</ele>
<time>2020-08-28T04:16:02Z</time></trkpt>
<trkpt lat="56.792494" lon="-4.014214">
<ele>250</ele>
<time>2020-08-28T04:16:58Z</time></trkpt>
<trkpt lat="56.793008" lon="-4.015156">
<ele>250</ele>
<time>2020-08-28T04:18:03Z</time></trkpt>
<trkpt lat="56.793462" lon="-4.015916">
<ele>249</ele>
<time>2020-08-28T04:18:58Z</time></trkpt>
<trkpt lat="56.794049" lon="-4.017029">
<ele>253</ele>
<time>2020-08-28T04:20:13Z</time></trkpt>
<trkpt lat="56.794243" lon="-4.017559">
<ele>253</ele>
<time>2020-08-28T04:20:44Z</time></trkpt>
<trkpt lat="56.794451" lon="-4.018477">
<ele>254</ele>
<time>2020-08-28T04:21:33Z</time></trkpt>
<trkpt lat="56.794628" lon="-4.019128">
<ele>255</ele>
<time>2020-08-28T04:22:08Z</time></trkpt>
<trkpt lat="56.794719" lon="-4.019379">
<ele>255</ele>
<time>2020-08-28T04:22:23Z</time></trkpt>
<trkpt lat="56.794959" lon="-4.019926">
<ele>256</ele>
<time>2020-08-28T04:22:57Z</time></trkpt>
<trkpt lat="56.795844" lon="-4.021734">
<ele>256</ele>
<time>2020-08-28T04:24:52Z</time></trkpt>
<trkpt lat="56.796288" lon="-4.0227">
<ele>258</ele>
<time>2020-08-28T04:25:51Z</time></trkpt>
<trkpt lat="56.797351" lon="-4.025378">
<ele>258</ele>
<time>2020-08-28T04:28:16Z</time></trkpt>
<trkpt lat="56.797583" lon="-4.026048">
<ele>258</ele>
<time>2020-08-28T04:28:49Z</time></trkpt>
<trkpt lat="56.797735" lon="-4.026542">
<ele>258</ele>
<time>2020-08-28T04:29:14Z</time></trkpt>
<trkpt lat="56.798085" lon="-4.02798">
<ele>257</ele>
<time>2020-08-28T04:30:21Z</time></trkpt>
<trkpt lat="56.7986196" lon="-4.0303467">
<ele>257</ele>
<time>2020-08-28T04:32:13Z</time></trkpt>
<trkpt lat="56.798928" lon="-4.031654">
<ele>256</ele>
<time>2020-08-28T04:33:15Z</time></trkpt>
<trkpt lat="56.799116" lon="-4.032194">
<ele>256</ele>
<time>2020-08-28T04:33:48Z</time></trkpt>
<trkpt lat="56.799228" lon="-4.032395">
<ele>256</ele>
<time>2020-08-28T04:34:02Z</time></trkpt>
<trkpt lat="56.799822" lon="-4.033273">
<ele>258</ele>
<time>2020-08-28T04:35:13Z</time></trkpt>
<trkpt lat="56.800143" lon="-4.03383">
<ele>260</ele>
<time>2020-08-28T04:35:53Z</time></trkpt>
<trkpt lat="56.800261" lon="-4.034181">
<ele>261</ele>
<time>2020-08-28T04:36:13Z</time></trkpt>
<trkpt lat="56.800331" lon="-4.034461">
<ele>260</ele>
<time>2020-08-28T04:36:26Z</time></trkpt>
<trkpt lat="56.800433" lon="-4.035032">
<ele>260</ele>
<time>2020-08-28T04:36:52Z</time></trkpt>
<trkpt lat="56.800565" lon="-4.036788">
<ele>259</ele>
<time>2020-08-28T04:38:07Z</time></trkpt>
<trkpt lat="56.800687" lon="-4.038721">
<ele>257</ele>
<time>2020-08-28T04:39:39Z</time></trkpt>
<trkpt lat="56.800711" lon="-4.039652">
<ele>257</ele>
<time>2020-08-28T04:40:24Z</time></trkpt>
<trkpt lat="56.800939" lon="-4.042595">
<ele>263</ele>
<time>2020-08-28T04:43:01Z</time></trkpt>
<trkpt lat="56.801918" lon="-4.053612">
<ele>265</ele>
<time>2020-08-28T04:51:44Z</time></trkpt>
<trkpt lat="56.802185" lon="-4.056455">
<ele>268</ele>
<time>2020-08-28T04:54:05Z</time></trkpt>
<trkpt lat="56.80255" lon="-4.060762">
<ele>270</ele>
<time>2020-08-28T04:57:32Z</time></trkpt>
<trkpt lat="56.802945" lon="-4.064915">
<ele>271</ele>
<time>2020-08-28T05:00:40Z</time></trkpt>
<trkpt lat="56.802994" lon="-4.065748">
<ele>272</ele>
<time>2020-08-28T05:01:21Z</time></trkpt>
<trkpt lat="56.803087" lon="-4.066467">
<ele>272</ele>
<time>2020-08-28T05:01:57Z</time></trkpt>
<trkpt lat="56.803194" lon="-4.066897">
<ele>272</ele>
<time>2020-08-28T05:02:20Z</time></trkpt>
<trkpt lat="56.803369" lon="-4.067341">
<ele>273</ele>
<time>2020-08-28T05:02:47Z</time></trkpt>
<trkpt lat="56.80573" lon="-4.072134">
<ele>280</ele>
<time>2020-08-28T05:08:11Z</time></trkpt>
<trkpt lat="56.805807" lon="-4.072314">
<ele>280</ele>
<time>2020-08-28T05:08:21Z</time></trkpt>
<trkpt lat="56.805893" lon="-4.07265">
<ele>280</ele>
<time>2020-08-28T05:08:38Z</time></trkpt>
<trkpt lat="56.805923" lon="-4.072878">
<ele>281</ele>
<time>2020-08-28T05:08:48Z</time></trkpt>
<trkpt lat="56.805942" lon="-4.07341">
<ele>281</ele>
<time>2020-08-28T05:09:16Z</time></trkpt>
<trkpt lat="56.80594" lon="-4.074726">
<ele>283</ele>
<time>2020-08-28T05:10:27Z</time></trkpt>
<trkpt lat="56.806046" lon="-4.076299">
<ele>286</ele>
<time>2020-08-28T05:11:52Z</time></trkpt>
<trkpt lat="56.806283" lon="-4.079119">
<ele>290</ele>
<time>2020-08-28T05:14:12Z</time></trkpt>
<trkpt lat="56.806302" lon="-4.07998">
<ele>290</ele>
<time>2020-08-28T05:14:54Z</time></trkpt>
<trkpt lat="56.806244" lon="-4.080564">
<ele>291</ele>
<time>2020-08-28T05:15:26Z</time></trkpt>
<trkpt lat="56.805779" lon="-4.083472">
<ele>296</ele>
<time>2020-08-28T05:18:09Z</time></trkpt>
<trkpt lat="56.805771" lon="-4.086203">
<ele>300</ele>
<time>2020-08-28T05:20:31Z</time></trkpt>
<trkpt lat="56.805804" lon="-4.087224">
<ele>302</ele>
<time>2020-08-28T05:21:24Z</time></trkpt>
<trkpt lat="56.805867" lon="-4.088555">
<ele>305</ele>
<time>2020-08-28T05:22:34Z</time></trkpt>
<trkpt lat="56.805893" lon="-4.088688">
<ele>305</ele>
<time>2020-08-28T05:22:41Z</time></trkpt>
<trkpt lat="56.805956" lon="-4.089428">
<ele>306</ele>
<time>2020-08-28T05:23:20Z</time></trkpt>
<trkpt lat="56.806333" lon="-4.092761">
<ele>313</ele>
<time>2020-08-28T05:26:45Z</time></trkpt>
<trkpt lat="56.806441" lon="-4.092827">
<ele>314</ele>
<time>2020-08-28T05:26:58Z</time></trkpt>
<trkpt lat="56.806644" lon="-4.092742">
<ele>317</ele>
<time>2020-08-28T05:27:21Z</time></trkpt>
<trkpt lat="56.807014" lon="-4.09559">
<ele>324</ele>
<time>2020-08-28T05:30:04Z</time></trkpt>
<trkpt lat="56.80737" lon="-4.097849">
<ele>324</ele>
<time>2020-08-28T05:32:03Z</time></trkpt>
<trkpt lat="56.807657" lon="-4.099172">
<ele>327</ele>
<time>2020-08-28T05:33:12Z</time></trkpt>
<trkpt lat="56.807918" lon="-4.100076">
<ele>326</ele>
<time>2020-08-28T05:33:56Z</time></trkpt>
<trkpt lat="56.8084755" lon="-4.1016951">
<ele>322</ele>
<time>2020-08-28T05:35:13Z</time></trkpt>
<trkpt lat="56.808887" lon="-4.10289">
<ele>320</ele>
<time>2020-08-28T05:36:12Z</time></trkpt>
<trkpt lat="56.809181" lon="-4.103857">
<ele>319</ele>
<time>2020-08-28T05:36:58Z</time></trkpt>
<trkpt lat="56.809436" lon="-4.104903">
<ele>317</ele>
<time>2020-08-28T05:37:46Z</time></trkpt>
<trkpt lat="56.809663" lon="-4.105997">
<ele>321</ele>
<time>2020-08-28T05:38:45Z</time></trkpt>
<trkpt lat="56.809812" lon="-4.106982">
<ele>324</ele>
<time>2020-08-28T05:39:45Z</time></trkpt>
<trkpt lat="56.809936" lon="-4.107975">
<ele>326</ele>
<time>2020-08-28T05:40:45Z</time></trkpt>
<trkpt lat="56.81017" lon="-4.111419">
<ele>331</ele>
<time>2020-08-28T05:43:47Z</time></trkpt>
<trkpt lat="56.810515" lon="-4.114371">
<ele>334</ele>
<time>2020-08-28T05:46:23Z</time></trkpt>
<trkpt lat="56.810831" lon="-4.116208">
<ele>336</ele>
<time>2020-08-28T05:48:04Z</time></trkpt>
<trkpt lat="56.811251" lon="-4.11817">
<ele>340</ele>
<time>2020-08-28T05:49:58Z</time></trkpt>
<trkpt lat="56.811557" lon="-4.119378">
<ele>343</ele>
<time>2020-08-28T05:51:07Z</time></trkpt>
<trkpt lat="56.812043" lon="-4.121043">
<ele>345</ele>
<time>2020-08-28T05:52:42Z</time></trkpt>
<trkpt lat="56.812601" lon="-4.122695">
<ele>345</ele>
<time>2020-08-28T05:54:16Z</time></trkpt>
<trkpt lat="56.8133478" lon="-4.1245489">
<ele>348</ele>
<time>2020-08-28T05:56:05Z</time></trkpt>
<trkpt lat="56.813511" lon="-4.124954">
<ele>349</ele>
<time>2020-08-28T05:56:32Z</time></trkpt>
<trkpt lat="56.814378" lon="-4.127018">
<ele>353</ele>
<time>2020-08-28T05:58:51Z</time></trkpt>
<trkpt lat="56.814788" lon="-4.128142">
<ele>354</ele>
<time>2020-08-28T06:00:04Z</time></trkpt>
<trkpt lat="56.81516" lon="-4.129295">
<ele>356</ele>
<time>2020-08-28T06:01:16Z</time></trkpt>
<trkpt lat="56.815429" lon="-4.13023">
<ele>360</ele>
<time>2020-08-28T06:02:13Z</time></trkpt>
<trkpt lat="56.816895" lon="-4.135816">
<ele>367</ele>
<time>2020-08-28T06:07:31Z</time></trkpt>
<trkpt lat="56.81724" lon="-4.137267">
<ele>371</ele>
<time>2020-08-28T06:08:47Z</time></trkpt>
<trkpt lat="56.817418" lon="-4.138181">
<ele>372</ele>
<time>2020-08-28T06:09:31Z</time></trkpt>
<trkpt lat="56.81757" lon="-4.139163">
<ele>370</ele>
<time>2020-08-28T06:10:18Z</time></trkpt>
<trkpt lat="56.817693" lon="-4.140172">
<ele>371</ele>
<time>2020-08-28T06:11:05Z</time></trkpt>
<trkpt lat="56.817795" lon="-4.141259">
<ele>371</ele>
<time>2020-08-28T06:11:57Z</time></trkpt>
<trkpt lat="56.817861" lon="-4.142739">
<ele>373</ele>
<time>2020-08-28T06:13:07Z</time></trkpt>
<trkpt lat="56.817869" lon="-4.144341">
<ele>374</ele>
<time>2020-08-28T06:14:23Z</time></trkpt>
<trkpt lat="56.817811" lon="-4.145679">
<ele>375</ele>
<time>2020-08-28T06:15:26Z</time></trkpt>
<trkpt lat="56.817605" lon="-4.148723">
<ele>376</ele>
<time>2020-08-28T06:17:57Z</time></trkpt>
<trkpt lat="56.817576" lon="-4.149759">
<ele>378</ele>
<time>2020-08-28T06:18:50Z</time></trkpt>
<trkpt lat="56.81757" lon="-4.152036">
<ele>379</ele>
<time>2020-08-28T06:20:41Z</time></trkpt>
<trkpt lat="56.817632" lon="-4.153541">
<ele>381</ele>
<time>2020-08-28T06:21:55Z</time></trkpt>
<trkpt lat="56.817657" lon="-4.15469">
<ele>383</ele>
<time>2020-08-28T06:22:57Z</time></trkpt>
<trkpt lat="56.81766" lon="-4.155768">
<ele>385</ele>
<time>2020-08-28T06:23:55Z</time></trkpt>
<trkpt lat="56.817616" lon="-4.157126">
<ele>387</ele>
<time>2020-08-28T06:25:07Z</time></trkpt>
<trkpt lat="56.817421" lon="-4.160225">
<ele>390</ele>
<time>2020-08-28T06:27:39Z</time></trkpt>
<trkpt lat="56.817398" lon="-4.161429">
<ele>393</ele>
<time>2020-08-28T06:28:36Z</time></trkpt>
<trkpt lat="56.817396" lon="-4.162775">
<ele>393</ele>
<time>2020-08-28T06:29:40Z</time></trkpt>
<trkpt lat="56.817653" lon="-4.172512">
<ele>401</ele>
<time>2020-08-28T06:37:39Z</time></trkpt>
<trkpt lat="56.817694" lon="-4.173883">
<ele>401</ele>
<time>2020-08-28T06:38:41Z</time></trkpt>
<trkpt lat="56.817738" lon="-4.174772">
<ele>401</ele>
<time>2020-08-28T06:39:21Z</time></trkpt>
<trkpt lat="56.817814" lon="-4.17572">
<ele>401</ele>
<time>2020-08-28T06:40:02Z</time></trkpt>
<trkpt lat="56.817937" lon="-4.176902">
<ele>401</ele>
<time>2020-08-28T06:40:54Z</time></trkpt>
<trkpt lat="56.818112" lon="-4.178194">
<ele>400</ele>
<time>2020-08-28T06:41:54Z</time></trkpt>
<trkpt lat="56.818316" lon="-4.179494">
<ele>399</ele>
<time>2020-08-28T06:42:58Z</time></trkpt>
<trkpt lat="56.818641" lon="-4.181088">
<ele>402</ele>
<time>2020-08-28T06:44:19Z</time></trkpt>
<trkpt lat="56.819129" lon="-4.183045">
<ele>404</ele>
<time>2020-08-28T06:46:03Z</time></trkpt>
<trkpt lat="56.819408" lon="-4.184003">
<ele>405</ele>
<time>2020-08-28T06:46:56Z</time></trkpt>
<trkpt lat="56.819826" lon="-4.185243">
<ele>407</ele>
<time>2020-08-28T06:48:05Z</time></trkpt>
<trkpt lat="56.820675" lon="-4.187331">
<ele>407</ele>
<time>2020-08-28T06:50:10Z</time></trkpt>
<trkpt lat="56.821515" lon="-4.189514">
<ele>411</ele>
<time>2020-08-28T06:52:24Z</time></trkpt>
<trkpt lat="56.822156" lon="-4.191542">
<ele>414</ele>
<time>2020-08-28T06:54:19Z</time></trkpt>
<trkpt lat="56.822683" lon="-4.193433">
<ele>415</ele>
<time>2020-08-28T06:56:04Z</time></trkpt>
<trkpt lat="56.823122" lon="-4.195345">
<ele>417</ele>
<time>2020-08-28T06:57:48Z</time></trkpt>
<trkpt lat="56.823828" lon="-4.198855">
<ele>419</ele>
<time>2020-08-28T07:00:41Z</time></trkpt>
<trkpt lat="56.824319" lon="-4.200725">
<ele>422</ele>
<time>2020-08-28T07:02:33Z</time></trkpt>
<trkpt lat="56.824872" lon="-4.202557">
<ele>427</ele>
<time>2020-08-28T07:04:29Z</time></trkpt>
<trkpt lat="56.8252405" lon="-4.2037251">
<ele>429</ele>
<time>2020-08-28T07:05:41Z</time></trkpt>
<trkpt lat="56.827261" lon="-4.21013">
<ele>442</ele>
<time>2020-08-28T07:12:11Z</time></trkpt>
<trkpt lat="56.828091" lon="-4.212689">
<ele>448</ele>
<time>2020-08-28T07:14:52Z</time></trkpt>
<trkpt lat="56.828741" lon="-4.214466">
<ele>448</ele>
<time>2020-08-28T07:16:41Z</time></trkpt>
<trkpt lat="56.829491" lon="-4.216257">
<ele>446</ele>
<time>2020-08-28T07:18:15Z</time></trkpt>
<trkpt lat="56.830115" lon="-4.217599">
<ele>443</ele>
<time>2020-08-28T07:19:29Z</time></trkpt>
<trkpt lat="56.830542" lon="-4.218463">
<ele>441</ele>
<time>2020-08-28T07:20:17Z</time></trkpt>
<trkpt lat="56.830945" lon="-4.219219">
<ele>442</ele>
<time>2020-08-28T07:21:01Z</time></trkpt>
<trkpt lat="56.83137" lon="-4.220289">
<ele>439</ele>
<time>2020-08-28T07:22:03Z</time></trkpt>
<trkpt lat="56.832099" lon="-4.222337">
<ele>444</ele>
<time>2020-08-28T07:23:59Z</time></trkpt>
<trkpt lat="56.832457" lon="-4.223203">
<ele>445</ele>
<time>2020-08-28T07:24:54Z</time></trkpt>
<trkpt lat="56.833103" lon="-4.224548">
<ele>447</ele>
<time>2020-08-28T07:26:24Z</time></trkpt>
<trkpt lat="56.833557" lon="-4.225393">
<ele>448</ele>
<time>2020-08-28T07:27:22Z</time></trkpt>
<trkpt lat="56.834169" lon="-4.226417">
<ele>450</ele>
<time>2020-08-28T07:28:36Z</time></trkpt>
<trkpt lat="56.83748" lon="-4.231574">
<ele>451</ele>
<time>2020-08-28T07:34:33Z</time></trkpt>
<trkpt lat="56.837945" lon="-4.232239">
<ele>450</ele>
<time>2020-08-28T07:35:26Z</time></trkpt>
<trkpt lat="56.839223" lon="-4.233849">
<ele>455</ele>
<time>2020-08-28T07:37:47Z</time></trkpt>
<trkpt lat="56.8395073" lon="-4.2341497">
<ele>456</ele>
<time>2020-08-28T07:38:20Z</time></trkpt>
<trkpt lat="56.839879" lon="-4.234543">
<ele>458</ele>
<time>2020-08-28T07:39:04Z</time></trkpt>
<trkpt lat="56.842023" lon="-4.236514">
<ele>458</ele>
<time>2020-08-28T07:42:30Z</time></trkpt>
<trkpt lat="56.843502" lon="-4.237932">
<ele>457</ele>
<time>2020-08-28T07:44:47Z</time></trkpt>
<trkpt lat="56.844951" lon="-4.239399">
<ele>459</ele>
<time>2020-08-28T07:47:04Z</time></trkpt>
<trkpt lat="56.845483" lon="-4.239866">
<ele>460</ele>
<time>2020-08-28T07:47:53Z</time></trkpt>
<trkpt lat="56.8479" lon="-4.241568">
<ele>459</ele>
<time>2020-08-28T07:51:23Z</time></trkpt>
<trkpt lat="56.849577" lon="-4.243043">
<ele>462</ele>
<time>2020-08-28T07:54:08Z</time></trkpt>
<trkpt lat="56.850041" lon="-4.243405">
<ele>462</ele>
<time>2020-08-28T07:54:48Z</time></trkpt>
<trkpt lat="56.850456" lon="-4.243689">
<ele>461</ele>
<time>2020-08-28T07:55:22Z</time></trkpt>
<trkpt lat="56.851315" lon="-4.244165">
<ele>460</ele>
<time>2020-08-28T07:56:33Z</time></trkpt>
<trkpt lat="56.851976" lon="-4.244436">
<ele>460</ele>
<time>2020-08-28T07:57:26Z</time></trkpt>
<trkpt lat="56.853196" lon="-4.244815">
<ele>458</ele>
<time>2020-08-28T07:59:06Z</time></trkpt>
<trkpt lat="56.853626" lon="-4.244977">
<ele>458</ele>
<time>2020-08-28T07:59:42Z</time></trkpt>
<trkpt lat="56.854618" lon="-4.24544">
<ele>460</ele>
<time>2020-08-28T08:01:07Z</time></trkpt>
<trkpt lat="56.85515" lon="-4.245746">
<ele>461</ele>
<time>2020-08-28T08:01:51Z</time></trkpt>
<trkpt lat="56.8599428" lon="-4.2490153">
<ele>454</ele>
<time>2020-08-28T08:08:30Z</time></trkpt>
<trkpt lat="56.861033" lon="-4.249759">
<ele>456</ele>
<time>2020-08-28T08:10:03Z</time></trkpt>
<trkpt lat="56.861916" lon="-4.250402">
<ele>455</ele>
<time>2020-08-28T08:11:21Z</time></trkpt>
<trkpt lat="56.863531" lon="-4.251746">
<ele>457</ele>
<time>2020-08-28T08:13:58Z</time></trkpt>
<trkpt lat="56.864439" lon="-4.252609">
<ele>456</ele>
<time>2020-08-28T08:15:18Z</time></trkpt>
<trkpt lat="56.865318" lon="-4.253528">
<ele>455</ele>
<time>2020-08-28T08:16:36Z</time></trkpt>
<trkpt lat="56.86621" lon="-4.254393">
<ele>454</ele>
<time>2020-08-28T08:17:54Z</time></trkpt>
<trkpt lat="56.867" lon="-4.25506">
<ele>451</ele>
<time>2020-08-28T08:19:01Z</time></trkpt>
<trkpt lat="56.867363" lon="-4.255323">
<ele>451</ele>
<time>2020-08-28T08:19:31Z</time></trkpt>
<trkpt lat="56.867837" lon="-4.255615">
<ele>450</ele>
<time>2020-08-28T08:20:10Z</time></trkpt>
<trkpt lat="56.868561" lon="-4.255984">
<ele>449</ele>
<time>2020-08-28T08:21:07Z</time></trkpt>
<trkpt lat="56.869039" lon="-4.256191">
<ele>448</ele>
<time>2020-08-28T08:21:45Z</time></trkpt>
<trkpt lat="56.869476" lon="-4.25634">
<ele>447</ele>
<time>2020-08-28T08:22:18Z</time></trkpt>
<trkpt lat="56.870868" lon="-4.256708">
<ele>444</ele>
<time>2020-08-28T08:24:05Z</time></trkpt>
<trkpt lat="56.871659" lon="-4.256878">
<ele>443</ele>
<time>2020-08-28T08:25:06Z</time></trkpt>
<trkpt lat="56.872703" lon="-4.25706">
<ele>440</ele>
<time>2020-08-28T08:26:26Z</time></trkpt>
<trkpt lat="56.873661" lon="-4.257164">
<ele>438</ele>
<time>2020-08-28T08:27:40Z</time></trkpt>
<trkpt lat="56.874563" lon="-4.257176">
<ele>437</ele>
<time>2020-08-28T08:28:48Z</time></trkpt>
<trkpt lat="56.874889" lon="-4.25716">
<ele>436</ele>
<time>2020-08-28T08:29:13Z</time></trkpt>
<trkpt lat="56.875147" lon="-4.257114">
<ele>436</ele>
<time>2020-08-28T08:29:32Z</time></trkpt>
<trkpt lat="56.87592" lon="-4.256901">
<ele>433</ele>
<time>2020-08-28T08:30:30Z</time></trkpt>
<trkpt lat="56.876874" lon="-4.256501">
<ele>432</ele>
<time>2020-08-28T08:31:46Z</time></trkpt>
<trkpt lat="56.880313" lon="-4.254633">
<ele>428</ele>
<time>2020-08-28T08:36:24Z</time></trkpt>
<trkpt lat="56.882047" lon="-4.253602">
<ele>426</ele>
<time>2020-08-28T08:38:48Z</time></trkpt>
<trkpt lat="56.883211" lon="-4.252811">
<ele>426</ele>
<time>2020-08-28T08:40:27Z</time></trkpt>
<trkpt lat="56.8848" lon="-4.251552">
<ele>426</ele>
<time>2020-08-28T08:42:46Z</time></trkpt>
<trkpt lat="56.885659" lon="-4.250988">
<ele>427</ele>
<time>2020-08-28T08:44:03Z</time></trkpt>
<trkpt lat="56.886557" lon="-4.250501">
<ele>428</ele>
<time>2020-08-28T08:45:24Z</time></trkpt>
<trkpt lat="56.890008" lon="-4.248894">
<ele>423</ele>
<time>2020-08-28T08:50:02Z</time></trkpt>
<trkpt lat="56.892822" lon="-4.247751">
<ele>419</ele>
<time>2020-08-28T08:53:45Z</time></trkpt>
<trkpt lat="56.894303" lon="-4.247086">
<ele>419</ele>
<time>2020-08-28T08:55:46Z</time></trkpt>
<trkpt lat="56.89555" lon="-4.246372">
<ele>419</ele>
<time>2020-08-28T08:57:30Z</time></trkpt>
<trkpt lat="56.896362" lon="-4.245825">
<ele>419</ele>
<time>2020-08-28T08:58:39Z</time></trkpt>
<trkpt lat="56.897343" lon="-4.245059">
<ele>417</ele>
<time>2020-08-28T09:00:02Z</time></trkpt>
<trkpt lat="56.898415" lon="-4.244098">
<ele>416</ele>
<time>2020-08-28T09:01:34Z</time></trkpt>
<trkpt lat="56.900851" lon="-4.241609">
<ele>408</ele>
<time>2020-08-28T09:05:03Z</time></trkpt>
<trkpt lat="56.901918" lon="-4.240582">
<ele>405</ele>
<time>2020-08-28T09:06:36Z</time></trkpt>
<trkpt lat="56.902708" lon="-4.23987">
<ele>404</ele>
<time>2020-08-28T09:07:43Z</time></trkpt>
<trkpt lat="56.903515" lon="-4.239241">
<ele>403</ele>
<time>2020-08-28T09:08:52Z</time></trkpt>
<trkpt lat="56.904256" lon="-4.238707">
<ele>403</ele>
<time>2020-08-28T09:09:54Z</time></trkpt>
<trkpt lat="56.905208" lon="-4.238069">
<ele>402</ele>
<time>2020-08-28T09:11:12Z</time></trkpt>
<trkpt lat="56.905948" lon="-4.23765">
<ele>401</ele>
<time>2020-08-28T09:12:12Z</time></trkpt>
<trkpt lat="56.907151" lon="-4.237042">
<ele>398</ele>
<time>2020-08-28T09:13:48Z</time></trkpt>
<trkpt lat="56.90768" lon="-4.2368284">
<ele>398</ele>
<time>2020-08-28T09:14:29Z</time></trkpt>
<trkpt lat="56.908444" lon="-4.23652">
<ele>396</ele>
<time>2020-08-28T09:15:30Z</time></trkpt>
<trkpt lat="56.909756" lon="-4.236089">
<ele>394</ele>
<time>2020-08-28T09:17:12Z</time></trkpt>
<trkpt lat="56.911207" lon="-4.235792">
<ele>393</ele>
<time>2020-08-28T09:19:06Z</time></trkpt>
<trkpt lat="56.912567" lon="-4.235646">
<ele>391</ele>
<time>2020-08-28T09:20:51Z</time></trkpt>
<trkpt lat="56.91389" lon="-4.235646">
<ele>389</ele>
<time>2020-08-28T09:22:33Z</time></trkpt>
<trkpt lat="56.916608" lon="-4.235832">
<ele>386</ele>
<time>2020-08-28T09:26:00Z</time></trkpt>
<trkpt lat="56.916828" lon="-4.235971">
<ele>384</ele>
<time>2020-08-28T09:26:17Z</time></trkpt>
<trkpt lat="56.916937" lon="-4.236067">
<ele>383</ele>
<time>2020-08-28T09:26:26Z</time></trkpt>
<trkpt lat="56.917018" lon="-4.236242">
<ele>382</ele>
<time>2020-08-28T09:26:35Z</time></trkpt>
<trkpt lat="56.917087" lon="-4.236626">
<ele>380</ele>
<time>2020-08-28T09:26:51Z</time></trkpt>
<trkpt lat="56.917166" lon="-4.236827">
<ele>380</ele>
<time>2020-08-28T09:27:01Z</time></trkpt>
<trkpt lat="56.917293" lon="-4.236966">
<ele>379</ele>
<time>2020-08-28T09:27:14Z</time></trkpt>
<trkpt lat="56.91777" lon="-4.237099">
<ele>379</ele>
<time>2020-08-28T09:27:54Z</time></trkpt>
<trkpt lat="56.919214" lon="-4.237971">
<ele>382</ele>
<time>2020-08-28T09:29:58Z</time></trkpt>
<trkpt lat="56.921676" lon="-4.239221">
<ele>374</ele>
<time>2020-08-28T09:33:13Z</time></trkpt>
<trkpt lat="56.922539" lon="-4.239696">
<ele>374</ele>
<time>2020-08-28T09:34:22Z</time></trkpt>
<trkpt lat="56.923755" lon="-4.240484">
<ele>370</ele>
<time>2020-08-28T09:36:01Z</time></trkpt>
<trkpt lat="56.924341" lon="-4.240795">
<ele>371</ele>
<time>2020-08-28T09:36:48Z</time></trkpt>
<trkpt lat="56.92454" lon="-4.240846">
<ele>371</ele>
<time>2020-08-28T09:37:03Z</time></trkpt>
<trkpt lat="56.924785" lon="-4.240823">
<ele>370</ele>
<time>2020-08-28T09:37:22Z</time></trkpt>
<trkpt lat="56.925035" lon="-4.240741">
<ele>370</ele>
<time>2020-08-28T09:37:41Z</time></trkpt>
<trkpt lat="56.925349" lon="-4.240602">
<ele>369</ele>
<time>2020-08-28T09:38:06Z</time></trkpt>
<trkpt lat="56.926248" lon="-4.239999">
<ele>367</ele>
<time>2020-08-28T09:39:19Z</time></trkpt>
<trkpt lat="56.926432" lon="-4.239919">
<ele>367</ele>
<time>2020-08-28T09:39:35Z</time></trkpt>
<trkpt lat="56.926757" lon="-4.239915">
<ele>366</ele>
<time>2020-08-28T09:40:02Z</time></trkpt>
<trkpt lat="56.926906" lon="-4.239968">
<ele>366</ele>
<time>2020-08-28T09:40:15Z</time></trkpt>
<trkpt lat="56.927847" lon="-4.24063">
<ele>368</ele>
<time>2020-08-28T09:41:38Z</time></trkpt>
<trkpt lat="56.929418" lon="-4.241665">
<ele>361</ele>
<time>2020-08-28T09:43:39Z</time></trkpt>
<trkpt lat="56.930713" lon="-4.242397">
<ele>358</ele>
<time>2020-08-28T09:45:22Z</time></trkpt>
<trkpt lat="56.930958" lon="-4.242447">
<ele>358</ele>
<time>2020-08-28T09:45:41Z</time></trkpt>
<trkpt lat="56.931296" lon="-4.242441">
<ele>357</ele>
<time>2020-08-28T09:46:07Z</time></trkpt>
<trkpt lat="56.931877" lon="-4.24236">
<ele>357</ele>
<time>2020-08-28T09:46:52Z</time></trkpt>
<trkpt lat="56.932499" lon="-4.2422">
<ele>356</ele>
<time>2020-08-28T09:47:41Z</time></trkpt>
<trkpt lat="56.933798" lon="-4.241777">
<ele>355</ele>
<time>2020-08-28T09:49:24Z</time></trkpt>
<trkpt lat="56.934554" lon="-4.241488">
<ele>355</ele>
<time>2020-08-28T09:50:25Z</time></trkpt>
<trkpt lat="56.936171" lon="-4.240793">
<ele>352</ele>
<time>2020-08-28T09:52:35Z</time></trkpt>
<trkpt lat="56.938551" lon="-4.239864">
<ele>351</ele>
<time>2020-08-28T09:55:56Z</time></trkpt>
<trkpt lat="56.938857" lon="-4.239653">
<ele>352</ele>
<time>2020-08-28T09:56:24Z</time></trkpt>
<trkpt lat="56.939037" lon="-4.239452">
<ele>353</ele>
<time>2020-08-28T09:56:41Z</time></trkpt>
<trkpt lat="56.939147" lon="-4.239264">
<ele>354</ele>
<time>2020-08-28T09:56:53Z</time></trkpt>
<trkpt lat="56.939279" lon="-4.238863">
<ele>353</ele>
<time>2020-08-28T09:57:13Z</time></trkpt>
<trkpt lat="56.939599" lon="-4.237639">
<ele>351</ele>
<time>2020-08-28T09:58:12Z</time></trkpt>
<trkpt lat="56.939755" lon="-4.237141">
<ele>352</ele>
<time>2020-08-28T09:58:36Z</time></trkpt>
<trkpt lat="56.939951" lon="-4.236752">
<ele>352</ele>
<time>2020-08-28T09:58:59Z</time></trkpt>
<trkpt lat="56.94014" lon="-4.236492">
<ele>352</ele>
<time>2020-08-28T09:59:18Z</time></trkpt>
<trkpt lat="56.940566" lon="-4.236125">
<ele>353</ele>
<time>2020-08-28T09:59:54Z</time></trkpt>
<trkpt lat="56.941247" lon="-4.235575">
<ele>351</ele>
<time>2020-08-28T10:00:52Z</time></trkpt>
<trkpt lat="56.941661" lon="-4.235323">
<ele>350</ele>
<time>2020-08-28T10:01:26Z</time></trkpt>
<trkpt lat="56.941831" lon="-4.235267">
<ele>350</ele>
<time>2020-08-28T10:01:42Z</time></trkpt>
<trkpt lat="56.942028" lon="-4.235281">
<ele>350</ele>
<time>2020-08-28T10:02:00Z</time></trkpt>
<trkpt lat="56.942209" lon="-4.235351">
<ele>351</ele>
<time>2020-08-28T10:02:17Z</time></trkpt>
<trkpt lat="56.942431" lon="-4.235482">
<ele>352</ele>
<time>2020-08-28T10:02:39Z</time></trkpt>
<trkpt lat="56.942643" lon="-4.23565">
<ele>352</ele>
<time>2020-08-28T10:03:00Z</time></trkpt>
<trkpt lat="56.94285" lon="-4.235879">
<ele>353</ele>
<time>2020-08-28T10:03:22Z</time></trkpt>
<trkpt lat="56.943" lon="-4.236113">
<ele>353</ele>
<time>2020-08-28T10:03:41Z</time></trkpt>
<trkpt lat="56.943253" lon="-4.236642">
<ele>354</ele>
<time>2020-08-28T10:04:16Z</time></trkpt>
<trkpt lat="56.943343" lon="-4.236882">
<ele>354</ele>
<time>2020-08-28T10:04:29Z</time></trkpt>
<trkpt lat="56.943424" lon="-4.237181">
<ele>354</ele>
<time>2020-08-28T10:04:44Z</time></trkpt>
<trkpt lat="56.943452" lon="-4.237382">
<ele>354</ele>
<time>2020-08-28T10:04:53Z</time></trkpt>
<trkpt lat="56.943675" lon="-4.23735">
<ele>355</ele>
<time>2020-08-28T10:05:11Z</time></trkpt>
<trkpt lat="56.943968" lon="-4.237122">
<ele>355</ele>
<time>2020-08-28T10:05:36Z</time></trkpt>
<trkpt lat="56.944311" lon="-4.236662">
<ele>355</ele>
<time>2020-08-28T10:06:10Z</time></trkpt>
<trkpt lat="56.944629" lon="-4.236094">
<ele>354</ele>
<time>2020-08-28T10:06:46Z</time></trkpt>
<trkpt lat="56.945131" lon="-4.235048">
<ele>353</ele>
<time>2020-08-28T10:07:45Z</time></trkpt>
<trkpt lat="56.945809" lon="-4.233718">
<ele>351</ele>
<time>2020-08-28T10:09:01Z</time></trkpt>
<trkpt lat="56.946409" lon="-4.23249">
<ele>349</ele>
<time>2020-08-28T10:10:11Z</time></trkpt>
<trkpt lat="56.946556" lon="-4.232205">
<ele>348</ele>
<time>2020-08-28T10:10:28Z</time></trkpt>
<trkpt lat="56.946664" lon="-4.232041">
<ele>347</ele>
<time>2020-08-28T10:10:39Z</time></trkpt>
<trkpt lat="56.946913" lon="-4.231822">
<ele>348</ele>
<time>2020-08-28T10:11:00Z</time></trkpt>
<trkpt lat="56.949054" lon="-4.230916">
<ele>349</ele>
<time>2020-08-28T10:13:55Z</time></trkpt>
<trkpt lat="56.94923" lon="-4.230794">
<ele>349</ele>
<time>2020-08-28T10:14:10Z</time></trkpt>
<trkpt lat="56.94941" lon="-4.230612">
<ele>350</ele>
<time>2020-08-28T10:14:26Z</time></trkpt>
<trkpt lat="56.949893" lon="-4.230035">
<ele>348</ele>
<time>2020-08-28T10:15:12Z</time></trkpt>
<trkpt lat="56.951911" lon="-4.227727">
<ele>347</ele>
<time>2020-08-28T10:18:19Z</time></trkpt>
<trkpt lat="56.952891" lon="-4.226563">
<ele>346</ele>
<time>2020-08-28T10:19:48Z</time></trkpt>
<trkpt lat="56.953638" lon="-4.225588">
<ele>343</ele>
<time>2020-08-28T10:20:57Z</time></trkpt>
<trkpt lat="56.955229" lon="-4.222897">
<ele>339</ele>
<time>2020-08-28T10:23:44Z</time></trkpt>
<trkpt lat="56.955362" lon="-4.222737">
<ele>339</ele>
<time>2020-08-28T10:23:56Z</time></trkpt>
<trkpt lat="56.956109" lon="-4.222157">
<ele>340</ele>
<time>2020-08-28T10:25:01Z</time></trkpt>
<trkpt lat="56.957469" lon="-4.22105">
<ele>338</ele>
<time>2020-08-28T10:26:59Z</time></trkpt>
<trkpt lat="56.958695" lon="-4.220423">
<ele>335</ele>
<time>2020-08-28T10:28:36Z</time></trkpt>
<trkpt lat="56.959031" lon="-4.220115">
<ele>334</ele>
<time>2020-08-28T10:29:04Z</time></trkpt>
<trkpt lat="56.959242" lon="-4.219553">
<ele>334</ele>
<time>2020-08-28T10:29:32Z</time></trkpt>
<trkpt lat="56.959498" lon="-4.218611">
<ele>333</ele>
<time>2020-08-28T10:30:16Z</time></trkpt>
<trkpt lat="56.959701" lon="-4.218054">
<ele>332</ele>
<time>2020-08-28T10:30:44Z</time></trkpt>
<trkpt lat="56.960059" lon="-4.217486">
<ele>331</ele>
<time>2020-08-28T10:31:20Z</time></trkpt>
<trkpt lat="56.960577" lon="-4.21695">
<ele>331</ele>
<time>2020-08-28T10:32:07Z</time></trkpt>
<trkpt lat="56.960994" lon="-4.216462">
<ele>331</ele>
<time>2020-08-28T10:32:47Z</time></trkpt>
<trkpt lat="56.961339" lon="-4.215916">
<ele>331</ele>
<time>2020-08-28T10:33:23Z</time></trkpt>
<trkpt lat="56.961607" lon="-4.215363">
<ele>331</ele>
<time>2020-08-28T10:33:56Z</time></trkpt>
<trkpt lat="56.961753" lon="-4.214909">
<ele>331</ele>
<time>2020-08-28T10:34:19Z</time></trkpt>
<trkpt lat="56.961814" lon="-4.214518">
<ele>331</ele>
<time>2020-08-28T10:34:36Z</time></trkpt>
<trkpt lat="56.961848" lon="-4.21417">
<ele>330</ele>
<time>2020-08-28T10:34:52Z</time></trkpt>
<trkpt lat="56.961832" lon="-4.212828">
<ele>331</ele>
<time>2020-08-28T10:35:51Z</time></trkpt>
<trkpt lat="56.961901" lon="-4.212068">
<ele>331</ele>
<time>2020-08-28T10:36:24Z</time></trkpt>
<trkpt lat="56.962083" lon="-4.211404">
<ele>331</ele>
<time>2020-08-28T10:36:57Z</time></trkpt>
<trkpt lat="56.962337" lon="-4.210878">
<ele>331</ele>
<time>2020-08-28T10:37:27Z</time></trkpt>
<trkpt lat="56.962606" lon="-4.210467">
<ele>331</ele>
<time>2020-08-28T10:37:55Z</time></trkpt>
<trkpt lat="56.962987" lon="-4.210178">
<ele>331</ele>
<time>2020-08-28T10:38:28Z</time></trkpt>
<trkpt lat="56.965096" lon="-4.208821">
<ele>330</ele>
<time>2020-08-28T10:41:25Z</time></trkpt>
<trkpt lat="56.96556" lon="-4.208268">
<ele>328</ele>
<time>2020-08-28T10:42:08Z</time></trkpt>
<trkpt lat="56.968506" lon="-4.20449">
<ele>324</ele>
<time>2020-08-28T10:46:50Z</time></trkpt>
<trkpt lat="56.969135" lon="-4.203604">
<ele>325</ele>
<time>2020-08-28T10:48:00Z</time></trkpt>
<trkpt lat="56.970354" lon="-4.201766">
<ele>328</ele>
<time>2020-08-28T10:50:21Z</time></trkpt>
<trkpt lat="56.971437" lon="-4.200178">
<ele>332</ele>
<time>2020-08-28T10:52:29Z</time></trkpt>
<trkpt lat="56.971616" lon="-4.199966">
<ele>333</ele>
<time>2020-08-28T10:52:49Z</time></trkpt>
<trkpt lat="56.971861" lon="-4.199723">
<ele>335</ele>
<time>2020-08-28T10:53:17Z</time></trkpt>
<trkpt lat="56.972046" lon="-4.199476">
<ele>336</ele>
<time>2020-08-28T10:53:39Z</time></trkpt>
<trkpt lat="56.97431" lon="-4.19561">
<ele>335</ele>
<time>2020-08-28T10:58:00Z</time></trkpt>
<trkpt lat="56.974657" lon="-4.195055">
<ele>337</ele>
<time>2020-08-28T10:58:36Z</time></trkpt>
<trkpt lat="56.974967" lon="-4.194461">
<ele>336</ele>
<time>2020-08-28T10:59:12Z</time></trkpt>
<trkpt lat="56.97558" lon="-4.193045">
<ele>333</ele>
<time>2020-08-28T11:00:26Z</time></trkpt>
<trkpt lat="56.977514" lon="-4.18994">
<ele>320</ele>
<time>2020-08-28T11:03:33Z</time></trkpt>
<trkpt lat="56.982125" lon="-4.185432">
<ele>317</ele>
<time>2020-08-28T11:10:25Z</time></trkpt>
<trkpt lat="56.982433" lon="-4.185217">
<ele>318</ele>
<time>2020-08-28T11:10:52Z</time></trkpt>
<trkpt lat="56.984508" lon="-4.184141">
<ele>320</ele>
<time>2020-08-28T11:13:51Z</time></trkpt>
<trkpt lat="56.986235" lon="-4.183157">
<ele>315</ele>
<time>2020-08-28T11:16:13Z</time></trkpt>
<trkpt lat="56.986613" lon="-4.183056">
<ele>315</ele>
<time>2020-08-28T11:16:42Z</time></trkpt>
<trkpt lat="56.987183" lon="-4.183094">
<ele>315</ele>
<time>2020-08-28T11:17:32Z</time></trkpt>
<trkpt lat="56.988187" lon="-4.183236">
<ele>316</ele>
<time>2020-08-28T11:19:11Z</time></trkpt>
<trkpt lat="56.988608" lon="-4.183191">
<ele>319</ele>
<time>2020-08-28T11:19:52Z</time></trkpt>
<trkpt lat="56.989627" lon="-4.182842">
<ele>324</ele>
<time>2020-08-28T11:21:18Z</time></trkpt>
<trkpt lat="56.990278" lon="-4.182573">
<ele>322</ele>
<time>2020-08-28T11:22:11Z</time></trkpt>
<trkpt lat="56.990703" lon="-4.182303">
<ele>321</ele>
<time>2020-08-28T11:22:46Z</time></trkpt>
<trkpt lat="56.99131" lon="-4.181752">
<ele>319</ele>
<time>2020-08-28T11:23:35Z</time></trkpt>
<trkpt lat="56.991762" lon="-4.181285">
<ele>317</ele>
<time>2020-08-28T11:24:12Z</time></trkpt>
<trkpt lat="56.992048" lon="-4.181065">
<ele>314</ele>
<time>2020-08-28T11:24:34Z</time></trkpt>
<trkpt lat="56.992328" lon="-4.180978">
<ele>313</ele>
<time>2020-08-28T11:24:55Z</time></trkpt>
<trkpt lat="56.99253" lon="-4.180954">
<ele>313</ele>
<time>2020-08-28T11:25:10Z</time></trkpt>
<trkpt lat="56.992966" lon="-4.181145">
<ele>312</ele>
<time>2020-08-28T11:25:43Z</time></trkpt>
<trkpt lat="56.993453" lon="-4.181426">
<ele>312</ele>
<time>2020-08-28T11:26:20Z</time></trkpt>
<trkpt lat="56.993782" lon="-4.181504">
<ele>310</ele>
<time>2020-08-28T11:26:45Z</time></trkpt>
<trkpt lat="56.993982" lon="-4.181511">
<ele>309</ele>
<time>2020-08-28T11:27:00Z</time></trkpt>
<trkpt lat="56.994244" lon="-4.181444">
<ele>307</ele>
<time>2020-08-28T11:27:19Z</time></trkpt>
<trkpt lat="56.994502" lon="-4.181307">
<ele>306</ele>
<time>2020-08-28T11:27:40Z</time></trkpt>
<trkpt lat="56.994773" lon="-4.181031">
<ele>304</ele>
<time>2020-08-28T11:28:04Z</time></trkpt>
<trkpt lat="56.995117" lon="-4.180593">
<ele>302</ele>
<time>2020-08-28T11:28:36Z</time></trkpt>
<trkpt lat="56.996457" lon="-4.178801">
<ele>307</ele>
<time>2020-08-28T11:30:52Z</time></trkpt>
<trkpt lat="56.997563" lon="-4.177947">
<ele>306</ele>
<time>2020-08-28T11:32:34Z</time></trkpt>
<trkpt lat="56.998538" lon="-4.176963">
<ele>305</ele>
<time>2020-08-28T11:34:02Z</time></trkpt>
<trkpt lat="56.999768" lon="-4.175466">
<ele>305</ele>
<time>2020-08-28T11:35:58Z</time></trkpt>
<trkpt lat="57.000624" lon="-4.174476">
<ele>304</ele>
<time>2020-08-28T11:37:18Z</time></trkpt>
<trkpt lat="57.001098" lon="-4.173879">
<ele>303</ele>
<time>2020-08-28T11:38:03Z</time></trkpt>
<trkpt lat="57.001461" lon="-4.173524">
<ele>303</ele>
<time>2020-08-28T11:38:34Z</time></trkpt>
<trkpt lat="57.002144" lon="-4.173018">
<ele>302</ele>
<time>2020-08-28T11:39:31Z</time></trkpt>
<trkpt lat="57.002297" lon="-4.172793">
<ele>301</ele>
<time>2020-08-28T11:39:46Z</time></trkpt>
<trkpt lat="57.002448" lon="-4.172406">
<ele>301</ele>
<time>2020-08-28T11:40:08Z</time></trkpt>
<trkpt lat="57.0025" lon="-4.172121">
<ele>301</ele>
<time>2020-08-28T11:40:21Z</time></trkpt>
<trkpt lat="57.00245" lon="-4.171546">
<ele>302</ele>
<time>2020-08-28T11:40:48Z</time></trkpt>
<trkpt lat="57.002333" lon="-4.170992">
<ele>304</ele>
<time>2020-08-28T11:41:15Z</time></trkpt>
<trkpt lat="57.002969" lon="-4.170171">
<ele>302</ele>
<time>2020-08-28T11:42:19Z</time></trkpt>
<trkpt lat="57.003438" lon="-4.169674">
<ele>299</ele>
<time>2020-08-28T11:43:00Z</time></trkpt>
<trkpt lat="57.003965" lon="-4.169251">
<ele>298</ele>
<time>2020-08-28T11:43:43Z</time></trkpt>
<trkpt lat="57.004518" lon="-4.168917">
<ele>297</ele>
<time>2020-08-28T11:44:26Z</time></trkpt>
<trkpt lat="57.005114" lon="-4.1686502">
<ele>296</ele>
<time>2020-08-28T11:45:13Z</time></trkpt>
<trkpt lat="57.006336" lon="-4.168103">
<ele>295</ele>
<time>2020-08-28T11:46:50Z</time></trkpt>
<trkpt lat="57.007968" lon="-4.167443">
<ele>293</ele>
<time>2020-08-28T11:49:02Z</time></trkpt>
<trkpt lat="57.009075" lon="-4.166882">
<ele>294</ele>
<time>2020-08-28T11:50:44Z</time></trkpt>
<trkpt lat="57.010239" lon="-4.166133">
<ele>298</ele>
<time>2020-08-28T11:52:40Z</time></trkpt>
<trkpt lat="57.011311" lon="-4.165308">
<ele>298</ele>
<time>2020-08-28T11:54:13Z</time></trkpt>
<trkpt lat="57.012167" lon="-4.16457">
<ele>298</ele>
<time>2020-08-28T11:55:29Z</time></trkpt>
<trkpt lat="57.0129" lon="-4.163844">
<ele>298</ele>
<time>2020-08-28T11:56:35Z</time></trkpt>
<trkpt lat="57.013369" lon="-4.16343">
<ele>298</ele>
<time>2020-08-28T11:57:16Z</time></trkpt>
<trkpt lat="57.014759" lon="-4.162376">
<ele>297</ele>
<time>2020-08-28T11:59:15Z</time></trkpt>
<trkpt lat="57.015602" lon="-4.161782">
<ele>297</ele>
<time>2020-08-28T12:00:27Z</time></trkpt>
<trkpt lat="57.016025" lon="-4.161537">
<ele>297</ele>
<time>2020-08-28T12:01:04Z</time></trkpt>
<trkpt lat="57.016714" lon="-4.161207">
<ele>296</ele>
<time>2020-08-28T12:02:03Z</time></trkpt>
<trkpt lat="57.017322" lon="-4.161002">
<ele>297</ele>
<time>2020-08-28T12:02:54Z</time></trkpt>
<trkpt lat="57.0182" lon="-4.160766">
<ele>299</ele>
<time>2020-08-28T12:04:05Z</time></trkpt>
<trkpt lat="57.021203" lon="-4.159799">
<ele>294</ele>
<time>2020-08-28T12:08:04Z</time></trkpt>
<trkpt lat="57.028254" lon="-4.157052">
<ele>281</ele>
<time>2020-08-28T12:17:15Z</time></trkpt>
<trkpt lat="57.029041" lon="-4.156832">
<ele>282</ele>
<time>2020-08-28T12:18:21Z</time></trkpt>
<trkpt lat="57.029487" lon="-4.156739">
<ele>282</ele>
<time>2020-08-28T12:18:58Z</time></trkpt>
<trkpt lat="57.030458" lon="-4.156675">
<ele>282</ele>
<time>2020-08-28T12:20:21Z</time></trkpt>
<trkpt lat="57.031637" lon="-4.15654">
<ele>283</ele>
<time>2020-08-28T12:22:06Z</time></trkpt>
<trkpt lat="57.032775" lon="-4.156154">
<ele>286</ele>
<time>2020-08-28T12:23:38Z</time></trkpt>
<trkpt lat="57.033694" lon="-4.155743">
<ele>281</ele>
<time>2020-08-28T12:24:49Z</time></trkpt>
<trkpt lat="57.034142" lon="-4.155503">
<ele>277</ele>
<time>2020-08-28T12:25:23Z</time></trkpt>
<trkpt lat="57.034916" lon="-4.154981">
<ele>273</ele>
<time>2020-08-28T12:26:22Z</time></trkpt>
<trkpt lat="57.035752" lon="-4.154255">
<ele>272</ele>
<time>2020-08-28T12:27:30Z</time></trkpt>
<trkpt lat="57.037907" lon="-4.152053">
<ele>269</ele>
<time>2020-08-28T12:30:43Z</time></trkpt>
<trkpt lat="57.038411" lon="-4.15165">
<ele>268</ele>
<time>2020-08-28T12:31:26Z</time></trkpt>
<trkpt lat="57.038879" lon="-4.151236">
<ele>268</ele>
<time>2020-08-28T12:32:06Z</time></trkpt>
<trkpt lat="57.039115" lon="-4.151067">
<ele>267</ele>
<time>2020-08-28T12:32:25Z</time></trkpt>
<trkpt lat="57.039354" lon="-4.150919">
<ele>267</ele>
<time>2020-08-28T12:32:44Z</time></trkpt>
<trkpt lat="57.039645" lon="-4.150798">
<ele>266</ele>
<time>2020-08-28T12:33:06Z</time></trkpt>
<trkpt lat="57.04006" lon="-4.150552">
<ele>266</ele>
<time>2020-08-28T12:33:39Z</time></trkpt>
<trkpt lat="57.041907" lon="-4.14934">
<ele>260</ele>
<time>2020-08-28T12:36:08Z</time></trkpt>
<trkpt lat="57.042077" lon="-4.149206">
<ele>260</ele>
<time>2020-08-28T12:36:22Z</time></trkpt>
<trkpt lat="57.042852" lon="-4.14846">
<ele>260</ele>
<time>2020-08-28T12:37:31Z</time></trkpt>
<trkpt lat="57.043269" lon="-4.147985">
<ele>260</ele>
<time>2020-08-28T12:38:10Z</time></trkpt>
<trkpt lat="57.0438" lon="-4.147249">
<ele>260</ele>
<time>2020-08-28T12:39:03Z</time></trkpt>
<trkpt lat="57.044167" lon="-4.146551">
<ele>259</ele>
<time>2020-08-28T12:39:45Z</time></trkpt>
<trkpt lat="57.044314" lon="-4.146131">
<ele>260</ele>
<time>2020-08-28T12:40:07Z</time></trkpt>
<trkpt lat="57.044464" lon="-4.1453634">
<ele>259</ele>
<time>2020-08-28T12:40:41Z</time></trkpt>
<trkpt lat="57.045597" lon="-4.139564">
<ele>258</ele>
<time>2020-08-28T12:45:07Z</time></trkpt>
<trkpt lat="57.045913" lon="-4.138809">
<ele>258</ele>
<time>2020-08-28T12:45:50Z</time></trkpt>
<trkpt lat="57.046246" lon="-4.138182">
<ele>258</ele>
<time>2020-08-28T12:46:30Z</time></trkpt>
<trkpt lat="57.046328" lon="-4.137943">
<ele>258</ele>
<time>2020-08-28T12:46:43Z</time></trkpt>
<trkpt lat="57.046356" lon="-4.137655">
<ele>258</ele>
<time>2020-08-28T12:46:56Z</time></trkpt>
<trkpt lat="57.046468" lon="-4.137635">
<ele>258</ele>
<time>2020-08-28T12:47:05Z</time></trkpt>
<trkpt lat="57.046553" lon="-4.137554">
<ele>257</ele>
<time>2020-08-28T12:47:13Z</time></trkpt>
<trkpt lat="57.048723" lon="-4.133198">
<ele>260</ele>
<time>2020-08-28T12:51:41Z</time></trkpt>
<trkpt lat="57.04906" lon="-4.132643">
<ele>260</ele>
<time>2020-08-28T12:52:17Z</time></trkpt>
<trkpt lat="57.049231" lon="-4.13248">
<ele>260</ele>
<time>2020-08-28T12:52:30Z</time></trkpt>
<trkpt lat="57.049725" lon="-4.132125">
<ele>257</ele>
<time>2020-08-28T12:53:05Z</time></trkpt>
<trkpt lat="57.050033" lon="-4.131948">
<ele>255</ele>
<time>2020-08-28T12:53:27Z</time></trkpt>
<trkpt lat="57.050182" lon="-4.131905">
<ele>253</ele>
<time>2020-08-28T12:53:37Z</time></trkpt>
<trkpt lat="57.050461" lon="-4.131917">
<ele>250</ele>
<time>2020-08-28T12:53:55Z</time></trkpt>
<trkpt lat="57.050669" lon="-4.131975">
<ele>248</ele>
<time>2020-08-28T12:54:09Z</time></trkpt>
<trkpt lat="57.050899" lon="-4.132079">
<ele>246</ele>
<time>2020-08-28T12:54:27Z</time></trkpt>
<trkpt lat="57.051086" lon="-4.132196">
<ele>246</ele>
<time>2020-08-28T12:54:44Z</time></trkpt>
<trkpt lat="57.051177" lon="-4.132219">
<ele>245</ele>
<time>2020-08-28T12:54:52Z</time></trkpt>
<trkpt lat="57.051316" lon="-4.132198">
<ele>245</ele>
<time>2020-08-28T12:55:05Z</time></trkpt>
<trkpt lat="57.051491" lon="-4.13209">
<ele>245</ele>
<time>2020-08-28T12:55:21Z</time></trkpt>
<trkpt lat="57.051613" lon="-4.131975">
<ele>245</ele>
<time>2020-08-28T12:55:34Z</time></trkpt>
<trkpt lat="57.052086" lon="-4.131297">
<ele>247</ele>
<time>2020-08-28T12:56:27Z</time></trkpt>
<trkpt lat="57.052235" lon="-4.131121">
<ele>248</ele>
<time>2020-08-28T12:56:43Z</time></trkpt>
<trkpt lat="57.052481" lon="-4.130933">
<ele>250</ele>
<time>2020-08-28T12:57:07Z</time></trkpt>
<trkpt lat="57.053001" lon="-4.130677">
<ele>250</ele>
<time>2020-08-28T12:57:48Z</time></trkpt>
<trkpt lat="57.054109" lon="-4.130244">
<ele>249</ele>
<time>2020-08-28T12:59:15Z</time></trkpt>
<trkpt lat="57.054483" lon="-4.130231">
<ele>245</ele>
<time>2020-08-28T12:59:43Z</time></trkpt>
<trkpt lat="57.054747" lon="-4.130295">
<ele>242</ele>
<time>2020-08-28T13:00:02Z</time></trkpt>
<trkpt lat="57.055659" lon="-4.130754">
<ele>237</ele>
<time>2020-08-28T13:01:08Z</time></trkpt>
<trkpt lat="57.055876" lon="-4.13084">
<ele>237</ele>
<time>2020-08-28T13:01:23Z</time></trkpt>
<trkpt lat="57.056032" lon="-4.130866">
<ele>237</ele>
<time>2020-08-28T13:01:34Z</time></trkpt>
<trkpt lat="57.056268" lon="-4.130847">
<ele>238</ele>
<time>2020-08-28T13:01:52Z</time></trkpt>
<trkpt lat="57.056448" lon="-4.130777">
<ele>238</ele>
<time>2020-08-28T13:02:08Z</time></trkpt>
<trkpt lat="57.056596" lon="-4.130679">
<ele>238</ele>
<time>2020-08-28T13:02:21Z</time></trkpt>
<trkpt lat="57.057156" lon="-4.130203">
<ele>239</ele>
<time>2020-08-28T13:03:14Z</time></trkpt>
<trkpt lat="57.058975" lon="-4.128622">
<ele>240</ele>
<time>2020-08-28T13:06:08Z</time></trkpt>
<trkpt lat="57.059262" lon="-4.128403">
<ele>240</ele>
<time>2020-08-28T13:06:34Z</time></trkpt>
<trkpt lat="57.060805" lon="-4.1271">
<ele>243</ele>
<time>2020-08-28T13:09:12Z</time></trkpt>
<trkpt lat="57.062461" lon="-4.125667">
<ele>248</ele>
<time>2020-08-28T13:11:51Z</time></trkpt>
<trkpt lat="57.062653" lon="-4.125418">
<ele>248</ele>
<time>2020-08-28T13:12:11Z</time></trkpt>
<trkpt lat="57.062783" lon="-4.125186">
<ele>247</ele>
<time>2020-08-28T13:12:26Z</time></trkpt>
<trkpt lat="57.063653" lon="-4.123287">
<ele>248</ele>
<time>2020-08-28T13:14:18Z</time></trkpt>
<trkpt lat="57.065614" lon="-4.119137">
<ele>247</ele>
<time>2020-08-28T13:18:20Z</time></trkpt>
<trkpt lat="57.065738" lon="-4.118883">
<ele>247</ele>
<time>2020-08-28T13:18:35Z</time></trkpt>
<trkpt lat="57.067155" lon="-4.115777">
<ele>248</ele>
<time>2020-08-28T13:21:30Z</time></trkpt>
<trkpt lat="57.067374" lon="-4.115059">
<ele>247</ele>
<time>2020-08-28T13:22:05Z</time></trkpt>
<trkpt lat="57.068608" lon="-4.10987">
<ele>249</ele>
<time>2020-08-28T13:26:23Z</time></trkpt>
<trkpt lat="57.068915" lon="-4.108418">
<ele>249</ele>
<time>2020-08-28T13:27:33Z</time></trkpt>
<trkpt lat="57.069389" lon="-4.105461">
<ele>246</ele>
<time>2020-08-28T13:29:46Z</time></trkpt>
<trkpt lat="57.069881" lon="-4.10363">
<ele>247</ele>
<time>2020-08-28T13:31:13Z</time></trkpt>
<trkpt lat="57.070068" lon="-4.103055">
<ele>247</ele>
<time>2020-08-28T13:31:42Z</time></trkpt>
<trkpt lat="57.070312" lon="-4.102404">
<ele>246</ele>
<time>2020-08-28T13:32:16Z</time></trkpt>
<trkpt lat="57.070582" lon="-4.101803">
<ele>246</ele>
<time>2020-08-28T13:32:50Z</time></trkpt>
<trkpt lat="57.070887" lon="-4.10121">
<ele>246</ele>
<time>2020-08-28T13:33:26Z</time></trkpt>
<trkpt lat="57.071473" lon="-4.100202">
<ele>249</ele>
<time>2020-08-28T13:34:35Z</time></trkpt>
<trkpt lat="57.071801" lon="-4.099404">
<ele>249</ele>
<time>2020-08-28T13:35:22Z</time></trkpt>
<trkpt lat="57.07199" lon="-4.09887">
<ele>248</ele>
<time>2020-08-28T13:35:52Z</time></trkpt>
<trkpt lat="57.072352" lon="-4.098009">
<ele>245</ele>
<time>2020-08-28T13:36:34Z</time></trkpt>
<trkpt lat="57.072504" lon="-4.097554">
<ele>242</ele>
<time>2020-08-28T13:36:55Z</time></trkpt>
<trkpt lat="57.072675" lon="-4.096817">
<ele>240</ele>
<time>2020-08-28T13:37:26Z</time></trkpt>
<trkpt lat="57.072776" lon="-4.096208">
<ele>240</ele>
<time>2020-08-28T13:37:51Z</time></trkpt>
<trkpt lat="57.072836" lon="-4.095498">
<ele>240</ele>
<time>2020-08-28T13:38:19Z</time></trkpt>
<trkpt lat="57.072826" lon="-4.095169">
<ele>240</ele>
<time>2020-08-28T13:38:32Z</time></trkpt>
<trkpt lat="57.072791" lon="-4.09481">
<ele>238</ele>
<time>2020-08-28T13:38:46Z</time></trkpt>
<trkpt lat="57.072653" lon="-4.093792">
<ele>235</ele>
<time>2020-08-28T13:39:26Z</time></trkpt>
<trkpt lat="57.072623" lon="-4.093359">
<ele>234</ele>
<time>2020-08-28T13:39:43Z</time></trkpt>
<trkpt lat="57.072612" lon="-4.092918">
<ele>232</ele>
<time>2020-08-28T13:40:00Z</time></trkpt>
<trkpt lat="57.072624" lon="-4.092638">
<ele>232</ele>
<time>2020-08-28T13:40:11Z</time></trkpt>
<trkpt lat="57.072672" lon="-4.092264">
<ele>231</ele>
<time>2020-08-28T13:40:27Z</time></trkpt>
<trkpt lat="57.072808" lon="-4.091694">
<ele>231</ele>
<time>2020-08-28T13:40:56Z</time></trkpt>
<trkpt lat="57.072969" lon="-4.091145">
<ele>231</ele>
<time>2020-08-28T13:41:25Z</time></trkpt>
<trkpt lat="57.073223" lon="-4.090611">
<ele>231</ele>
<time>2020-08-28T13:41:58Z</time></trkpt>
<trkpt lat="57.073516" lon="-4.090094">
<ele>232</ele>
<time>2020-08-28T13:42:33Z</time></trkpt>
<trkpt lat="57.073664" lon="-4.089771">
<ele>233</ele>
<time>2020-08-28T13:42:53Z</time></trkpt>
<trkpt lat="57.07407" lon="-4.088728">
<ele>233</ele>
<time>2020-08-28T13:43:55Z</time></trkpt>
<trkpt lat="57.07491" lon="-4.086361">
<ele>236</ele>
<time>2020-08-28T13:46:09Z</time></trkpt>
<trkpt lat="57.074985" lon="-4.086103">
<ele>235</ele>
<time>2020-08-28T13:46:21Z</time></trkpt>
<trkpt lat="57.075052" lon="-4.085787">
<ele>234</ele>
<time>2020-08-28T13:46:36Z</time></trkpt>
<trkpt lat="57.075091" lon="-4.085461">
<ele>234</ele>
<time>2020-08-28T13:46:50Z</time></trkpt>
<trkpt lat="57.075282" lon="-4.083055">
<ele>234</ele>
<time>2020-08-28T13:48:33Z</time></trkpt>
<trkpt lat="57.075284" lon="-4.082426">
<ele>234</ele>
<time>2020-08-28T13:49:01Z</time></trkpt>
<trkpt lat="57.075253" lon="-4.081557">
<ele>234</ele>
<time>2020-08-28T13:49:39Z</time></trkpt>
<trkpt lat="57.075263" lon="-4.081071">
<ele>234</ele>
<time>2020-08-28T13:50:00Z</time></trkpt>
<trkpt lat="57.075315" lon="-4.080256">
<ele>234</ele>
<time>2020-08-28T13:50:36Z</time></trkpt>
<trkpt lat="57.075465" lon="-4.078388">
<ele>232</ele>
<time>2020-08-28T13:51:57Z</time></trkpt>
<trkpt lat="57.07559" lon="-4.076493">
<ele>233</ele>
<time>2020-08-28T13:53:19Z</time></trkpt>
<trkpt lat="57.075658" lon="-4.076024">
<ele>232</ele>
<time>2020-08-28T13:53:40Z</time></trkpt>
<trkpt lat="57.075999" lon="-4.074804">
<ele>231</ele>
<time>2020-08-28T13:54:39Z</time></trkpt>
<trkpt lat="57.076109" lon="-4.074309">
<ele>232</ele>
<time>2020-08-28T13:55:02Z</time></trkpt>
<trkpt lat="57.076261" lon="-4.073434">
<ele>232</ele>
<time>2020-08-28T13:55:41Z</time></trkpt>
<trkpt lat="57.076448" lon="-4.071502">
<ele>231</ele>
<time>2020-08-28T13:57:05Z</time></trkpt>
<trkpt lat="57.076518" lon="-4.070929">
<ele>230</ele>
<time>2020-08-28T13:57:31Z</time></trkpt>
<trkpt lat="57.076559" lon="-4.070709">
<ele>230</ele>
<time>2020-08-28T13:57:41Z</time></trkpt>
<trkpt lat="57.076601" lon="-4.070551">
<ele>230</ele>
<time>2020-08-28T13:57:48Z</time></trkpt>
<trkpt lat="57.076806" lon="-4.07">
<ele>231</ele>
<time>2020-08-28T13:58:17Z</time></trkpt>
<trkpt lat="57.077428" lon="-4.068612">
<ele>233</ele>
<time>2020-08-28T13:59:56Z</time></trkpt>
<trkpt lat="57.077578" lon="-4.068205">
<ele>235</ele>
<time>2020-08-28T14:00:23Z</time></trkpt>
<trkpt lat="57.077659" lon="-4.067958">
<ele>236</ele>
<time>2020-08-28T14:00:39Z</time></trkpt>
<trkpt lat="57.07776" lon="-4.067443">
<ele>238</ele>
<time>2020-08-28T14:01:09Z</time></trkpt>
<trkpt lat="57.077812" lon="-4.067079">
<ele>238</ele>
<time>2020-08-28T14:01:29Z</time></trkpt>
<trkpt lat="57.07784" lon="-4.066562">
<ele>237</ele>
<time>2020-08-28T14:01:50Z</time></trkpt>
<trkpt lat="57.077828" lon="-4.066106">
<ele>235</ele>
<time>2020-08-28T14:02:09Z</time></trkpt>
<trkpt lat="57.077792" lon="-4.065535">
<ele>234</ele>
<time>2020-08-28T14:02:32Z</time></trkpt>
<trkpt lat="57.077729" lon="-4.063594">
<ele>233</ele>
<time>2020-08-28T14:03:52Z</time></trkpt>
<trkpt lat="57.077724" lon="-4.0631">
<ele>233</ele>
<time>2020-08-28T14:04:13Z</time></trkpt>
<trkpt lat="57.077742" lon="-4.062403">
<ele>233</ele>
<time>2020-08-28T14:04:43Z</time></trkpt>
<trkpt lat="57.077836" lon="-4.061726">
<ele>233</ele>
<time>2020-08-28T14:05:14Z</time></trkpt>
<trkpt lat="57.078505" lon="-4.058185">
<ele>232</ele>
<time>2020-08-28T14:08:04Z</time></trkpt>
<trkpt lat="57.078899" lon="-4.056207">
<ele>234</ele>
<time>2020-08-28T14:09:39Z</time></trkpt>
<trkpt lat="57.079145" lon="-4.05539">
<ele>232</ele>
<time>2020-08-28T14:10:19Z</time></trkpt>
<trkpt lat="57.079525" lon="-4.054232">
<ele>232</ele>
<time>2020-08-28T14:11:16Z</time></trkpt>
<trkpt lat="57.079661" lon="-4.053734">
<ele>233</ele>
<time>2020-08-28T14:11:39Z</time></trkpt>
<trkpt lat="57.07793" lon="-4.052162">
<ele>229</ele>
<time>2020-08-28T14:14:06Z</time></trkpt>
<trkpt lat="57.077884" lon="-4.052081">
<ele>229</ele>
<time>2020-08-28T14:14:11Z</time></trkpt>
<trkpt lat="57.077687" lon="-4.051939">
<ele>228</ele>
<time>2020-08-28T14:14:27Z</time></trkpt>
<trkpt lat="57.077448" lon="-4.051715">
<ele>228</ele>
<time>2020-08-28T14:14:48Z</time></trkpt>
<trkpt lat="57.074803" lon="-4.049515">
<ele>223</ele>
<time>2020-08-28T14:18:31Z</time></trkpt>
<trkpt lat="57.073988" lon="-4.048807">
<ele>224</ele>
<time>2020-08-28T14:19:43Z</time></trkpt>
<trkpt lat="57.073531" lon="-4.048602">
<ele>224</ele>
<time>2020-08-28T14:20:21Z</time></trkpt>
<trkpt lat="57.073256" lon="-4.048546">
<ele>223</ele>
<time>2020-08-28T14:20:43Z</time></trkpt>
<trkpt lat="57.072988" lon="-4.048525">
<ele>223</ele>
<time>2020-08-28T14:21:04Z</time></trkpt>
<trkpt lat="57.072805" lon="-4.048435">
<ele>223</ele>
<time>2020-08-28T14:21:21Z</time></trkpt>
<trkpt lat="57.072658" lon="-4.048314">
<ele>222</ele>
<time>2020-08-28T14:21:36Z</time></trkpt>
<trkpt lat="57.072445" lon="-4.047933">
<ele>223</ele>
<time>2020-08-28T14:22:04Z</time></trkpt>
<trkpt lat="57.071963" lon="-4.046662">
<ele>227</ele>
<time>2020-08-28T14:23:24Z</time></trkpt>
<trkpt lat="57.071386" lon="-4.045402">
<ele>229</ele>
<time>2020-08-28T14:24:47Z</time></trkpt>
<trkpt lat="57.070909" lon="-4.044587">
<ele>231</ele>
<time>2020-08-28T14:25:45Z</time></trkpt>
<trkpt lat="57.070552" lon="-4.043611">
<ele>230</ele>
<time>2020-08-28T14:26:42Z</time></trkpt>
<trkpt lat="57.07011" lon="-4.042942">
<ele>234</ele>
<time>2020-08-28T14:27:31Z</time></trkpt>
<trkpt lat="57.070004" lon="-4.042732">
<ele>235</ele>
<time>2020-08-28T14:27:44Z</time></trkpt>
<trkpt lat="57.070355" lon="-4.04099">
<ele>232</ele>
<time>2020-08-28T14:29:08Z</time></trkpt>
<trkpt lat="57.070409" lon="-4.040508">
<ele>233</ele>
<time>2020-08-28T14:29:30Z</time></trkpt>
<trkpt lat="57.070492" lon="-4.040209">
<ele>232</ele>
<time>2020-08-28T14:29:45Z</time></trkpt>
<trkpt lat="57.071681" lon="-4.038492">
<ele>229</ele>
<time>2020-08-28T14:31:38Z</time></trkpt>
<trkpt lat="57.0718478" lon="-4.0381643">
<ele>228</ele>
<time>2020-08-28T14:31:56Z</time></trkpt>
<trkpt lat="57.071881" lon="-4.038099">
<ele>227</ele>
<time>2020-08-28T14:32:00Z</time></trkpt>
<trkpt lat="57.072104" lon="-4.037502">
<ele>225</ele>
<time>2020-08-28T14:32:29Z</time></trkpt>
<trkpt lat="57.072206" lon="-4.037067">
<ele>223</ele>
<time>2020-08-28T14:32:48Z</time></trkpt>
<trkpt lat="57.072245" lon="-4.036621">
<ele>222</ele>
<time>2020-08-28T14:33:07Z</time></trkpt>
<trkpt lat="57.072199" lon="-4.036144">
<ele>222</ele>
<time>2020-08-28T14:33:27Z</time></trkpt>
<trkpt lat="57.072109" lon="-4.035717">
<ele>222</ele>
<time>2020-08-28T14:33:45Z</time></trkpt>
<trkpt lat="57.071891" lon="-4.034431">
<ele>223</ele>
<time>2020-08-28T14:34:43Z</time></trkpt>
<trkpt lat="57.071782" lon="-4.03364">
<ele>224</ele>
<time>2020-08-28T14:35:21Z</time></trkpt>
<trkpt lat="57.071717" lon="-4.032657">
<ele>224</ele>
<time>2020-08-28T14:36:08Z</time></trkpt>
<trkpt lat="57.071704" lon="-4.032005">
<ele>224</ele>
<time>2020-08-28T14:36:38Z</time></trkpt>
<trkpt lat="57.07176" lon="-4.031082">
<ele>225</ele>
<time>2020-08-28T14:37:24Z</time></trkpt>
<trkpt lat="57.07193" lon="-4.030261">
<ele>226</ele>
<time>2020-08-28T14:38:11Z</time></trkpt>
<trkpt lat="57.072143" lon="-4.029423">
<ele>226</ele>
<time>2020-08-28T14:39:01Z</time></trkpt>
<trkpt lat="57.072232" lon="-4.028729">
<ele>228</ele>
<time>2020-08-28T14:39:39Z</time></trkpt>
<trkpt lat="57.072262" lon="-4.02815">
<ele>230</ele>
<time>2020-08-28T14:40:10Z</time></trkpt>
<trkpt lat="57.072229" lon="-4.027492">
<ele>233</ele>
<time>2020-08-28T14:40:53Z</time></trkpt>
<trkpt lat="57.07213" lon="-4.026231">
<ele>240</ele>
<time>2020-08-28T14:42:16Z</time></trkpt>
<trkpt lat="57.072127" lon="-4.025688">
<ele>242</ele>
<time>2020-08-28T14:42:51Z</time></trkpt>
<trkpt lat="57.07216" lon="-4.025157">
<ele>243</ele>
<time>2020-08-28T14:43:26Z</time></trkpt>
<trkpt lat="57.072239" lon="-4.024554">
<ele>243</ele>
<time>2020-08-28T14:44:02Z</time></trkpt>
<trkpt lat="57.072418" lon="-4.023969">
<ele>242</ele>
<time>2020-08-28T14:44:35Z</time></trkpt>
<trkpt lat="57.072891" lon="-4.022708">
<ele>242</ele>
<time>2020-08-28T14:45:49Z</time></trkpt>
<trkpt lat="57.073019" lon="-4.02208">
<ele>244</ele>
<time>2020-08-28T14:46:22Z</time></trkpt>
<trkpt lat="57.073055" lon="-4.021664">
<ele>246</ele>
<time>2020-08-28T14:46:42Z</time></trkpt>
<trkpt lat="57.073072" lon="-4.021133">
<ele>248</ele>
<time>2020-08-28T14:47:10Z</time></trkpt>
<trkpt lat="57.072967" lon="-4.020397">
<ele>250</ele>
<time>2020-08-28T14:47:49Z</time></trkpt>
<trkpt lat="57.07237" lon="-4.018013">
<ele>252</ele>
<time>2020-08-28T14:50:03Z</time></trkpt>
<trkpt lat="57.071995" lon="-4.016743">
<ele>253</ele>
<time>2020-08-28T14:51:13Z</time></trkpt>
<trkpt lat="57.071613" lon="-4.015681">
<ele>254</ele>
<time>2020-08-28T14:52:15Z</time></trkpt>
<trkpt lat="57.071047" lon="-4.013511">
<ele>256</ele>
<time>2020-08-28T14:54:08Z</time></trkpt>
<trkpt lat="57.070903" lon="-4.012428">
<ele>256</ele>
<time>2020-08-28T14:55:00Z</time></trkpt>
<trkpt lat="57.070694" lon="-4.01024">
<ele>256</ele>
<time>2020-08-28T14:56:41Z</time></trkpt>
<trkpt lat="57.070156" lon="-4.005151">
<ele>262</ele>
<time>2020-08-28T15:00:58Z</time></trkpt>
<trkpt lat="57.069995" lon="-4.003834">
<ele>262</ele>
<time>2020-08-28T15:02:02Z</time></trkpt>
<trkpt lat="57.069966" lon="-4.003219">
<ele>263</ele>
<time>2020-08-28T15:02:30Z</time></trkpt>
<trkpt lat="57.070002" lon="-4.002676">
<ele>264</ele>
<time>2020-08-28T15:02:56Z</time></trkpt>
<trkpt lat="57.070173" lon="-4.001691">
<ele>264</ele>
<time>2020-08-28T15:03:42Z</time></trkpt>
<trkpt lat="57.070558" lon="-3.999662">
<ele>257</ele>
<time>2020-08-28T15:05:04Z</time></trkpt>
<trkpt lat="57.070585" lon="-3.999038">
<ele>255</ele>
<time>2020-08-28T15:05:28Z</time></trkpt>
<trkpt lat="57.070515" lon="-3.998039">
<ele>258</ele>
<time>2020-08-28T15:06:16Z</time></trkpt>
<trkpt lat="57.070502" lon="-3.997768">
<ele>260</ele>
<time>2020-08-28T15:06:30Z</time></trkpt>
<trkpt lat="57.070513" lon="-3.997667">
<ele>261</ele>
<time>2020-08-28T15:06:35Z</time></trkpt>
<trkpt lat="57.070552" lon="-3.997623">
<ele>261</ele>
<time>2020-08-28T15:06:39Z</time></trkpt>
<trkpt lat="57.070679" lon="-3.997578">
<ele>262</ele>
<time>2020-08-28T15:06:52Z</time></trkpt>
<trkpt lat="57.070953" lon="-3.997749">
<ele>262</ele>
<time>2020-08-28T15:07:19Z</time></trkpt>
<trkpt lat="57.071349" lon="-3.997908">
<ele>263</ele>
<time>2020-08-28T15:07:58Z</time></trkpt>
<trkpt lat="57.071762" lon="-3.998204">
<ele>260</ele>
<time>2020-08-28T15:08:40Z</time></trkpt>
<trkpt lat="57.072306" lon="-3.998672">
<ele>258</ele>
<time>2020-08-28T15:09:28Z</time></trkpt>
<trkpt lat="57.072729" lon="-3.998813">
<ele>257</ele>
<time>2020-08-28T15:10:03Z</time></trkpt>
<trkpt lat="57.072948" lon="-3.998806">
<ele>257</ele>
<time>2020-08-28T15:10:20Z</time></trkpt>
<trkpt lat="57.073114" lon="-3.99877">
<ele>258</ele>
<time>2020-08-28T15:10:34Z</time></trkpt>
<trkpt lat="57.07368" lon="-3.99835">
<ele>260</ele>
<time>2020-08-28T15:11:22Z</time></trkpt>
<trkpt lat="57.074963" lon="-3.997297">
<ele>257</ele>
<time>2020-08-28T15:13:12Z</time></trkpt>
<trkpt lat="57.075205" lon="-3.99716">
<ele>258</ele>
<time>2020-08-28T15:13:32Z</time></trkpt>
<trkpt lat="57.075447" lon="-3.997113">
<ele>258</ele>
<time>2020-08-28T15:13:50Z</time></trkpt>
<trkpt lat="57.075808" lon="-3.997197">
<ele>257</ele>
<time>2020-08-28T15:14:16Z</time></trkpt>
<trkpt lat="57.076515" lon="-3.997566">
<ele>251</ele>
<time>2020-08-28T15:15:09Z</time></trkpt>
<trkpt lat="57.07675" lon="-3.997603">
<ele>250</ele>
<time>2020-08-28T15:15:26Z</time></trkpt>
<trkpt lat="57.076942" lon="-3.997573">
<ele>250</ele>
<time>2020-08-28T15:15:40Z</time></trkpt>
<trkpt lat="57.077126" lon="-3.997506">
<ele>250</ele>
<time>2020-08-28T15:15:53Z</time></trkpt>
<trkpt lat="57.078666" lon="-3.996083">
<ele>252</ele>
<time>2020-08-28T15:18:21Z</time></trkpt>
<trkpt lat="57.078953" lon="-3.995664">
<ele>251</ele>
<time>2020-08-28T15:18:51Z</time></trkpt>
<trkpt lat="57.07915" lon="-3.99516">
<ele>249</ele>
<time>2020-08-28T15:19:18Z</time></trkpt>
<trkpt lat="57.079316" lon="-3.9944">
<ele>249</ele>
<time>2020-08-28T15:19:54Z</time></trkpt>
<trkpt lat="57.079511" lon="-3.992747">
<ele>252</ele>
<time>2020-08-28T15:21:08Z</time></trkpt>
<trkpt lat="57.079935" lon="-3.990388">
<ele>253</ele>
<time>2020-08-28T15:23:04Z</time></trkpt>
<trkpt lat="57.080367" lon="-3.988382">
<ele>253</ele>
<time>2020-08-28T15:24:41Z</time></trkpt>
<trkpt lat="57.080638" lon="-3.987438">
<ele>251</ele>
<time>2020-08-28T15:25:27Z</time></trkpt>
<trkpt lat="57.080741" lon="-3.987026">
<ele>251</ele>
<time>2020-08-28T15:25:47Z</time></trkpt>
<trkpt lat="57.080741" lon="-3.986658">
<ele>253</ele>
<time>2020-08-28T15:26:03Z</time></trkpt>
<trkpt lat="57.080709" lon="-3.986009">
<ele>254</ele>
<time>2020-08-28T15:26:31Z</time></trkpt>
<trkpt lat="57.080401" lon="-3.981963">
<ele>255</ele>
<time>2020-08-28T15:29:25Z</time></trkpt>
<trkpt lat="57.080401" lon="-3.981277">
<ele>256</ele>
<time>2020-08-28T15:29:55Z</time></trkpt>
<trkpt lat="57.080509" lon="-3.980849">
<ele>255</ele>
<time>2020-08-28T15:30:16Z</time></trkpt>
<trkpt lat="57.080636" lon="-3.98062">
<ele>254</ele>
<time>2020-08-28T15:30:30Z</time></trkpt>
<trkpt lat="57.080846" lon="-3.980423">
<ele>253</ele>
<time>2020-08-28T15:30:49Z</time></trkpt>
<trkpt lat="57.081469" lon="-3.98013">
<ele>251</ele>
<time>2020-08-28T15:31:39Z</time></trkpt>
<trkpt lat="57.082359" lon="-3.979431">
<ele>248</ele>
<time>2020-08-28T15:32:50Z</time></trkpt>
<trkpt lat="57.082893" lon="-3.978786">
<ele>247</ele>
<time>2020-08-28T15:33:38Z</time></trkpt>
<trkpt lat="57.083144" lon="-3.978402">
<ele>246</ele>
<time>2020-08-28T15:34:03Z</time></trkpt>
<trkpt lat="57.08431" lon="-3.976101">
<ele>245</ele>
<time>2020-08-28T15:36:18Z</time></trkpt>
<trkpt lat="57.084898" lon="-3.975659">
<ele>244</ele>
<time>2020-08-28T15:37:05Z</time></trkpt>
<trkpt lat="57.085391" lon="-3.975192">
<ele>241</ele>
<time>2020-08-28T15:37:47Z</time></trkpt>
<trkpt lat="57.085921" lon="-3.97465">
<ele>239</ele>
<time>2020-08-28T15:38:32Z</time></trkpt>
<trkpt lat="57.086422" lon="-3.973786">
<ele>236</ele>
<time>2020-08-28T15:39:24Z</time></trkpt>
<trkpt lat="57.086571" lon="-3.973373">
<ele>237</ele>
<time>2020-08-28T15:39:44Z</time></trkpt>
<trkpt lat="57.086699" lon="-3.972923">
<ele>236</ele>
<time>2020-08-28T15:40:05Z</time></trkpt>
<trkpt lat="57.086973" lon="-3.971823">
<ele>235</ele>
<time>2020-08-28T15:40:54Z</time></trkpt>
<trkpt lat="57.087294" lon="-3.970825">
<ele>234</ele>
<time>2020-08-28T15:41:48Z</time></trkpt>
<trkpt lat="57.087763" lon="-3.969666">
<ele>236</ele>
<time>2020-08-28T15:42:56Z</time></trkpt>
<trkpt lat="57.087927" lon="-3.96935">
<ele>236</ele>
<time>2020-08-28T15:43:16Z</time></trkpt>
<trkpt lat="57.08818" lon="-3.968562">
<ele>238</ele>
<time>2020-08-28T15:43:57Z</time></trkpt>
<trkpt lat="57.088355" lon="-3.968143">
<ele>238</ele>
<time>2020-08-28T15:44:20Z</time></trkpt>
<trkpt lat="57.088528" lon="-3.967866">
<ele>238</ele>
<time>2020-08-28T15:44:38Z</time></trkpt>
<trkpt lat="57.08939" lon="-3.966618">
<ele>236</ele>
<time>2020-08-28T15:46:05Z</time></trkpt>
<trkpt lat="57.0895" lon="-3.966424">
<ele>235</ele>
<time>2020-08-28T15:46:17Z</time></trkpt>
<trkpt lat="57.089569" lon="-3.966121">
<ele>235</ele>
<time>2020-08-28T15:46:31Z</time></trkpt>
<trkpt lat="57.089579" lon="-3.965958">
<ele>235</ele>
<time>2020-08-28T15:46:38Z</time></trkpt>
<trkpt lat="57.089558" lon="-3.965562">
<ele>236</ele>
<time>2020-08-28T15:46:56Z</time></trkpt>
<trkpt lat="57.08947" lon="-3.964846">
<ele>238</ele>
<time>2020-08-28T15:47:28Z</time></trkpt>
<trkpt lat="57.089477" lon="-3.964492">
<ele>238</ele>
<time>2020-08-28T15:47:43Z</time></trkpt>
<trkpt lat="57.089523" lon="-3.964299">
<ele>238</ele>
<time>2020-08-28T15:47:52Z</time></trkpt>
<trkpt lat="57.089744" lon="-3.963695">
<ele>236</ele>
<time>2020-08-28T15:48:24Z</time></trkpt>
<trkpt lat="57.089855" lon="-3.963437">
<ele>236</ele>
<time>2020-08-28T15:48:38Z</time></trkpt>
<trkpt lat="57.090283" lon="-3.962403">
<ele>236</ele>
<time>2020-08-28T15:49:41Z</time></trkpt>
<trkpt lat="57.090525" lon="-3.961636">
<ele>238</ele>
<time>2020-08-28T15:50:24Z</time></trkpt>
<trkpt lat="57.090776" lon="-3.960596">
<ele>239</ele>
<time>2020-08-28T15:51:20Z</time></trkpt>
<trkpt lat="57.090838" lon="-3.960188">
<ele>240</ele>
<time>2020-08-28T15:51:42Z</time></trkpt>
<trkpt lat="57.091006" lon="-3.957694">
<ele>244</ele>
<time>2020-08-28T15:53:56Z</time></trkpt>
<trkpt lat="57.091095" lon="-3.957246">
<ele>245</ele>
<time>2020-08-28T15:54:21Z</time></trkpt>
<trkpt lat="57.091371" lon="-3.95551">
<ele>250</ele>
<time>2020-08-28T15:56:03Z</time></trkpt>
<trkpt lat="57.091502" lon="-3.955004">
<ele>251</ele>
<time>2020-08-28T15:56:35Z</time></trkpt>
<trkpt lat="57.091952" lon="-3.953968">
<ele>253</ele>
<time>2020-08-28T15:57:49Z</time></trkpt>
<trkpt lat="57.092259" lon="-3.953176">
<ele>254</ele>
<time>2020-08-28T15:58:36Z</time></trkpt>
<trkpt lat="57.092762" lon="-3.951383">
<ele>255</ele>
<time>2020-08-28T16:00:14Z</time></trkpt>
<trkpt lat="57.093052" lon="-3.950514">
<ele>258</ele>
<time>2020-08-28T16:01:06Z</time></trkpt>
<trkpt lat="57.0933" lon="-3.950047">
<ele>258</ele>
<time>2020-08-28T16:01:39Z</time></trkpt>
<trkpt lat="57.093693" lon="-3.949568">
<ele>260</ele>
<time>2020-08-28T16:02:24Z</time></trkpt>
<trkpt lat="57.093875" lon="-3.94944">
<ele>260</ele>
<time>2020-08-28T16:02:43Z</time></trkpt>
<trkpt lat="57.094402" lon="-3.949472">
<ele>261</ele>
<time>2020-08-28T16:03:33Z</time></trkpt>
<trkpt lat="57.09474" lon="-3.949451">
<ele>262</ele>
<time>2020-08-28T16:04:01Z</time></trkpt>
<trkpt lat="57.095044" lon="-3.94936">
<ele>264</ele>
<time>2020-08-28T16:04:27Z</time></trkpt>
<trkpt lat="57.09544" lon="-3.949093">
<ele>264</ele>
<time>2020-08-28T16:05:02Z</time></trkpt>
<trkpt lat="57.095681" lon="-3.948873">
<ele>264</ele>
<time>2020-08-28T16:05:24Z</time></trkpt>
<trkpt lat="57.096437" lon="-3.94802">
<ele>262</ele>
<time>2020-08-28T16:06:37Z</time></trkpt>
<trkpt lat="57.096759" lon="-3.947626">
<ele>263</ele>
<time>2020-08-28T16:07:08Z</time></trkpt>
<trkpt lat="57.097189" lon="-3.947339">
<ele>264</ele>
<time>2020-08-28T16:07:44Z</time></trkpt>
<trkpt lat="57.097949" lon="-3.947229">
<ele>262</ele>
<time>2020-08-28T16:08:45Z</time></trkpt>
<trkpt lat="57.098419" lon="-3.94701">
<ele>263</ele>
<time>2020-08-28T16:09:24Z</time></trkpt>
<trkpt lat="57.098994" lon="-3.946889">
<ele>262</ele>
<time>2020-08-28T16:10:10Z</time></trkpt>
<trkpt lat="57.099847" lon="-3.946824">
<ele>261</ele>
<time>2020-08-28T16:11:18Z</time></trkpt>
<trkpt lat="57.100371" lon="-3.946751">
<ele>258</ele>
<time>2020-08-28T16:11:55Z</time></trkpt>
<trkpt lat="57.100654" lon="-3.946621">
<ele>255</ele>
<time>2020-08-28T16:12:16Z</time></trkpt>
<trkpt lat="57.101525" lon="-3.945708">
<ele>253</ele>
<time>2020-08-28T16:13:27Z</time></trkpt>
<trkpt lat="57.10242" lon="-3.944694">
<ele>255</ele>
<time>2020-08-28T16:14:51Z</time></trkpt>
<trkpt lat="57.102776" lon="-3.944394">
<ele>253</ele>
<time>2020-08-28T16:15:22Z</time></trkpt>
<trkpt lat="57.10301" lon="-3.944051">
<ele>253</ele>
<time>2020-08-28T16:15:46Z</time></trkpt>
<trkpt lat="57.103513" lon="-3.943099">
<ele>255</ele>
<time>2020-08-28T16:16:43Z</time></trkpt>
<trkpt lat="57.104404" lon="-3.942175">
<ele>252</ele>
<time>2020-08-28T16:18:04Z</time></trkpt>
<trkpt lat="57.104642" lon="-3.941712">
<ele>252</ele>
<time>2020-08-28T16:18:32Z</time></trkpt>
<trkpt lat="57.104939" lon="-3.940983">
<ele>250</ele>
<time>2020-08-28T16:19:15Z</time></trkpt>
<trkpt lat="57.105001" lon="-3.940736">
<ele>249</ele>
<time>2020-08-28T16:19:28Z</time></trkpt>
<trkpt lat="57.105016" lon="-3.940481">
<ele>249</ele>
<time>2020-08-28T16:19:40Z</time></trkpt>
<trkpt lat="57.10499" lon="-3.939615">
<ele>253</ele>
<time>2020-08-28T16:20:20Z</time></trkpt>
<trkpt lat="57.105039" lon="-3.939076">
<ele>255</ele>
<time>2020-08-28T16:20:46Z</time></trkpt>
<trkpt lat="57.105187" lon="-3.938529">
<ele>253</ele>
<time>2020-08-28T16:21:13Z</time></trkpt>
<trkpt lat="57.105271" lon="-3.938135">
<ele>252</ele>
<time>2020-08-28T16:21:28Z</time></trkpt>
<trkpt lat="57.105301" lon="-3.937866">
<ele>252</ele>
<time>2020-08-28T16:21:38Z</time></trkpt>
<trkpt lat="57.10534" lon="-3.937126">
<ele>251</ele>
<time>2020-08-28T16:22:06Z</time></trkpt>
<trkpt lat="57.105426" lon="-3.936607">
<ele>249</ele>
<time>2020-08-28T16:22:26Z</time></trkpt>
<trkpt lat="57.105489" lon="-3.936449">
<ele>248</ele>
<time>2020-08-28T16:22:33Z</time></trkpt>
<trkpt lat="57.10572" lon="-3.936074">
<ele>244</ele>
<time>2020-08-28T16:22:54Z</time></trkpt>
<trkpt lat="57.106001" lon="-3.935519">
<ele>242</ele>
<time>2020-08-28T16:23:23Z</time></trkpt>
<trkpt lat="57.106232" lon="-3.934446">
<ele>244</ele>
<time>2020-08-28T16:24:17Z</time></trkpt>
<trkpt lat="57.106366" lon="-3.934142">
<ele>244</ele>
<time>2020-08-28T16:24:36Z</time></trkpt>
<trkpt lat="57.106522" lon="-3.933855">
<ele>243</ele>
<time>2020-08-28T16:24:55Z</time></trkpt>
<trkpt lat="57.107136" lon="-3.933142">
<ele>244</ele>
<time>2020-08-28T16:25:57Z</time></trkpt>
<trkpt lat="57.107258" lon="-3.932866">
<ele>245</ele>
<time>2020-08-28T16:26:13Z</time></trkpt>
<trkpt lat="57.107506" lon="-3.932048">
<ele>247</ele>
<time>2020-08-28T16:26:53Z</time></trkpt>
<trkpt lat="57.107787" lon="-3.931257">
<ele>245</ele>
<time>2020-08-28T16:27:34Z</time></trkpt>
<trkpt lat="57.108471" lon="-3.929486">
<ele>245</ele>
<time>2020-08-28T16:29:08Z</time></trkpt>
<trkpt lat="57.109016" lon="-3.928255">
<ele>244</ele>
<time>2020-08-28T16:30:17Z</time></trkpt>
<trkpt lat="57.10955" lon="-3.926907">
<ele>243</ele>
<time>2020-08-28T16:31:28Z</time></trkpt>
<trkpt lat="57.110159" lon="-3.925471">
<ele>242</ele>
<time>2020-08-28T16:32:45Z</time></trkpt>
<trkpt lat="57.110399" lon="-3.924836">
<ele>241</ele>
<time>2020-08-28T16:33:18Z</time></trkpt>
<trkpt lat="57.110549" lon="-3.924368">
<ele>242</ele>
<time>2020-08-28T16:33:41Z</time></trkpt>
<trkpt lat="57.110642" lon="-3.92415">
<ele>242</ele>
<time>2020-08-28T16:33:53Z</time></trkpt>
<trkpt lat="57.110735" lon="-3.924185">
<ele>241</ele>
<time>2020-08-28T16:34:00Z</time></trkpt>
<trkpt lat="57.11116" lon="-3.924453">
<ele>240</ele>
<time>2020-08-28T16:34:36Z</time></trkpt>
<trkpt lat="57.11145" lon="-3.924546">
<ele>239</ele>
<time>2020-08-28T16:34:59Z</time></trkpt>
<trkpt lat="57.111747" lon="-3.924558">
<ele>239</ele>
<time>2020-08-28T16:35:23Z</time></trkpt>
<trkpt lat="57.112035" lon="-3.924495">
<ele>240</ele>
<time>2020-08-28T16:35:45Z</time></trkpt>
<trkpt lat="57.112479" lon="-3.924251">
<ele>241</ele>
<time>2020-08-28T16:36:27Z</time></trkpt>
<trkpt lat="57.113139" lon="-3.923352">
<ele>244</ele>
<time>2020-08-28T16:37:42Z</time></trkpt>
<trkpt lat="57.113755" lon="-3.922467">
<ele>244</ele>
<time>2020-08-28T16:38:54Z</time></trkpt>
<trkpt lat="57.113896" lon="-3.9222">
<ele>244</ele>
<time>2020-08-28T16:39:10Z</time></trkpt>
<trkpt lat="57.114029" lon="-3.921863">
<ele>244</ele>
<time>2020-08-28T16:39:28Z</time></trkpt>
<trkpt lat="57.114513" lon="-3.920193">
<ele>244</ele>
<time>2020-08-28T16:40:50Z</time></trkpt>
<trkpt lat="57.114804" lon="-3.919119">
<ele>245</ele>
<time>2020-08-28T16:41:42Z</time></trkpt>
<trkpt lat="57.114986" lon="-3.918693">
<ele>246</ele>
<time>2020-08-28T16:42:06Z</time></trkpt>
<trkpt lat="57.115236" lon="-3.918316">
<ele>245</ele>
<time>2020-08-28T16:42:32Z</time></trkpt>
<trkpt lat="57.115723" lon="-3.917824">
<ele>245</ele>
<time>2020-08-28T16:43:16Z</time></trkpt>
<trkpt lat="57.116153" lon="-3.917498">
<ele>244</ele>
<time>2020-08-28T16:43:55Z</time></trkpt>
<trkpt lat="57.116458" lon="-3.917151">
<ele>244</ele>
<time>2020-08-28T16:44:32Z</time></trkpt>
<trkpt lat="57.116639" lon="-3.916863">
<ele>246</ele>
<time>2020-08-28T16:44:57Z</time></trkpt>
<trkpt lat="57.116714" lon="-3.916606">
<ele>247</ele>
<time>2020-08-28T16:45:13Z</time></trkpt>
<trkpt lat="57.116755" lon="-3.916205">
<ele>248</ele>
<time>2020-08-28T16:45:37Z</time></trkpt>
<trkpt lat="57.116801" lon="-3.914664">
<ele>252</ele>
<time>2020-08-28T16:47:04Z</time></trkpt>
<trkpt lat="57.11689" lon="-3.914343">
<ele>252</ele>
<time>2020-08-28T16:47:22Z</time></trkpt>
<trkpt lat="57.11707" lon="-3.913889">
<ele>254</ele>
<time>2020-08-28T16:47:50Z</time></trkpt>
<trkpt lat="57.117201" lon="-3.913485">
<ele>257</ele>
<time>2020-08-28T16:48:14Z</time></trkpt>
<trkpt lat="57.117362" lon="-3.912843">
<ele>259</ele>
<time>2020-08-28T16:48:49Z</time></trkpt>
<trkpt lat="57.117477" lon="-3.9122">
<ele>258</ele>
<time>2020-08-28T16:49:23Z</time></trkpt>
<trkpt lat="57.117576" lon="-3.911441">
<ele>256</ele>
<time>2020-08-28T16:50:02Z</time></trkpt>
<trkpt lat="57.117609" lon="-3.910673">
<ele>257</ele>
<time>2020-08-28T16:50:39Z</time></trkpt>
<trkpt lat="57.117678" lon="-3.910156">
<ele>257</ele>
<time>2020-08-28T16:51:05Z</time></trkpt>
<trkpt lat="57.118163" lon="-3.90843">
<ele>259</ele>
<time>2020-08-28T16:52:39Z</time></trkpt>
<trkpt lat="57.118461" lon="-3.906772">
<ele>260</ele>
<time>2020-08-28T16:53:56Z</time></trkpt>
<trkpt lat="57.118501" lon="-3.906269">
<ele>259</ele>
<time>2020-08-28T16:54:18Z</time></trkpt>
<trkpt lat="57.118509" lon="-3.905809">
<ele>258</ele>
<time>2020-08-28T16:54:38Z</time></trkpt>
<trkpt lat="57.118485" lon="-3.905357">
<ele>257</ele>
<time>2020-08-28T16:54:58Z</time></trkpt>
<trkpt lat="57.118409" lon="-3.905065">
<ele>258</ele>
<time>2020-08-28T16:55:12Z</time></trkpt>
<trkpt lat="57.118279" lon="-3.904788">
<ele>259</ele>
<time>2020-08-28T16:55:31Z</time></trkpt>
<trkpt lat="57.117663" lon="-3.904033">
<ele>267</ele>
<time>2020-08-28T16:56:53Z</time></trkpt>
<trkpt lat="57.117528" lon="-3.903584">
<ele>271</ele>
<time>2020-08-28T16:57:23Z</time></trkpt>
<trkpt lat="57.117451" lon="-3.903193">
<ele>272</ele>
<time>2020-08-28T16:57:48Z</time></trkpt>
<trkpt lat="57.117372" lon="-3.902541">
<ele>270</ele>
<time>2020-08-28T16:58:28Z</time></trkpt>
<trkpt lat="57.117228" lon="-3.901962">
<ele>268</ele>
<time>2020-08-28T16:59:00Z</time></trkpt>
<trkpt lat="57.117192" lon="-3.901754">
<ele>267</ele>
<time>2020-08-28T16:59:08Z</time></trkpt>
<trkpt lat="57.116861" lon="-3.900709">
<ele>261</ele>
<time>2020-08-28T16:59:54Z</time></trkpt>
<trkpt lat="57.116608" lon="-3.900213">
<ele>257</ele>
<time>2020-08-28T17:00:21Z</time></trkpt>
<trkpt lat="57.116478" lon="-3.900069">
<ele>257</ele>
<time>2020-08-28T17:00:31Z</time></trkpt>
<trkpt lat="57.11603" lon="-3.899791">
<ele>260</ele>
<time>2020-08-28T17:01:05Z</time></trkpt>
<trkpt lat="57.115743" lon="-3.899558">
<ele>259</ele>
<time>2020-08-28T17:01:27Z</time></trkpt>
<trkpt lat="57.115411" lon="-3.899069">
<ele>255</ele>
<time>2020-08-28T17:01:58Z</time></trkpt>
<trkpt lat="57.115265" lon="-3.898701">
<ele>253</ele>
<time>2020-08-28T17:02:16Z</time></trkpt>
<trkpt lat="57.115238" lon="-3.898621">
<ele>252</ele>
<time>2020-08-28T17:02:19Z</time></trkpt>
<trkpt lat="57.115207" lon="-3.898413">
<ele>249</ele>
<time>2020-08-28T17:02:28Z</time></trkpt>
<trkpt lat="57.115236" lon="-3.897886">
<ele>251</ele>
<time>2020-08-28T17:02:48Z</time></trkpt>
<trkpt lat="57.115321" lon="-3.897924">
<ele>250</ele>
<time>2020-08-28T17:02:55Z</time></trkpt>
<trkpt lat="57.115439" lon="-3.897811">
<ele>251</ele>
<time>2020-08-28T17:03:04Z</time></trkpt>
<trkpt lat="57.115495" lon="-3.897857">
<ele>251</ele>
<time>2020-08-28T17:03:08Z</time></trkpt>
<trkpt lat="57.115608" lon="-3.897538">
<ele>253</ele>
<time>2020-08-28T17:03:27Z</time></trkpt>
<trkpt lat="57.115734" lon="-3.897364">
<ele>255</ele>
<time>2020-08-28T17:03:45Z</time></trkpt>
<trkpt lat="57.116283" lon="-3.897422">
<ele>258</ele>
<time>2020-08-28T17:04:45Z</time></trkpt>
<trkpt lat="57.116594" lon="-3.897524">
<ele>259</ele>
<time>2020-08-28T17:05:20Z</time></trkpt>
<trkpt lat="57.117282" lon="-3.89785">
<ele>261</ele>
<time>2020-08-28T17:06:38Z</time></trkpt>
<trkpt lat="57.117928" lon="-3.898052">
<ele>261</ele>
<time>2020-08-28T17:07:27Z</time></trkpt>
<trkpt lat="57.118115" lon="-3.898055">
<ele>260</ele>
<time>2020-08-28T17:07:41Z</time></trkpt>
<trkpt lat="57.118243" lon="-3.897994">
<ele>259</ele>
<time>2020-08-28T17:07:50Z</time></trkpt>
<trkpt lat="57.11909" lon="-3.897435">
<ele>254</ele>
<time>2020-08-28T17:08:55Z</time></trkpt>
<trkpt lat="57.120287" lon="-3.896717">
<ele>256</ele>
<time>2020-08-28T17:10:42Z</time></trkpt>
<trkpt lat="57.120889" lon="-3.896559">
<ele>256</ele>
<time>2020-08-28T17:11:35Z</time></trkpt>
<trkpt lat="57.121444" lon="-3.896212">
<ele>256</ele>
<time>2020-08-28T17:12:24Z</time></trkpt>
<trkpt lat="57.122134" lon="-3.895604">
<ele>256</ele>
<time>2020-08-28T17:13:27Z</time></trkpt>
<trkpt lat="57.122346" lon="-3.895363">
<ele>256</ele>
<time>2020-08-28T17:13:48Z</time></trkpt>
<trkpt lat="57.123006" lon="-3.894341">
<ele>259</ele>
<time>2020-08-28T17:15:06Z</time></trkpt>
<trkpt lat="57.123132" lon="-3.894185">
<ele>260</ele>
<time>2020-08-28T17:15:20Z</time></trkpt>
<trkpt lat="57.123246" lon="-3.894078">
<ele>260</ele>
<time>2020-08-28T17:15:32Z</time></trkpt>
<trkpt lat="57.123592" lon="-3.893863">
<ele>261</ele>
<time>2020-08-28T17:16:07Z</time></trkpt>
<trkpt lat="57.124" lon="-3.893547">
<ele>262</ele>
<time>2020-08-28T17:16:49Z</time></trkpt>
<trkpt lat="57.124184" lon="-3.893335">
<ele>262</ele>
<time>2020-08-28T17:17:10Z</time></trkpt>
<trkpt lat="57.124465" lon="-3.892922">
<ele>262</ele>
<time>2020-08-28T17:17:43Z</time></trkpt>
<trkpt lat="57.125554" lon="-3.891921">
<ele>265</ele>
<time>2020-08-28T17:19:35Z</time></trkpt>
<trkpt lat="57.126069" lon="-3.891341">
<ele>267</ele>
<time>2020-08-28T17:20:31Z</time></trkpt>
<trkpt lat="57.126488" lon="-3.890794">
<ele>268</ele>
<time>2020-08-28T17:21:18Z</time></trkpt>
<trkpt lat="57.126773" lon="-3.890029">
<ele>268</ele>
<time>2020-08-28T17:22:05Z</time></trkpt>
<trkpt lat="57.127513" lon="-3.888906">
<ele>271</ele>
<time>2020-08-28T17:23:29Z</time></trkpt>
<trkpt lat="57.128207" lon="-3.888572">
<ele>271</ele>
<time>2020-08-28T17:24:27Z</time></trkpt>
<trkpt lat="57.129103" lon="-3.887903">
<ele>270</ele>
<time>2020-08-28T17:25:44Z</time></trkpt>
<trkpt lat="57.129726" lon="-3.887326">
<ele>272</ele>
<time>2020-08-28T17:26:40Z</time></trkpt>
<trkpt lat="57.130096" lon="-3.886793">
<ele>272</ele>
<time>2020-08-28T17:27:18Z</time></trkpt>
<trkpt lat="57.130436" lon="-3.885906">
<ele>270</ele>
<time>2020-08-28T17:28:05Z</time></trkpt>
<trkpt lat="57.131156" lon="-3.884555">
<ele>269</ele>
<time>2020-08-28T17:29:33Z</time></trkpt>
<trkpt lat="57.131338" lon="-3.884336">
<ele>269</ele>
<time>2020-08-28T17:29:52Z</time></trkpt>
<trkpt lat="57.13292" lon="-3.882092">
<ele>276</ele>
<time>2020-08-28T17:32:52Z</time></trkpt>
<trkpt lat="57.133398" lon="-3.881372">
<ele>276</ele>
<time>2020-08-28T17:33:48Z</time></trkpt>
<trkpt lat="57.133962" lon="-3.880686">
<ele>276</ele>
<time>2020-08-28T17:34:41Z</time></trkpt>
<trkpt lat="57.134613" lon="-3.880084">
<ele>274</ele>
<time>2020-08-28T17:35:37Z</time></trkpt>
<trkpt lat="57.135795" lon="-3.878417">
<ele>269</ele>
<time>2020-08-28T17:37:28Z</time></trkpt>
<trkpt lat="57.136273" lon="-3.877897">
<ele>270</ele>
<time>2020-08-28T17:38:08Z</time></trkpt>
<trkpt lat="57.136768" lon="-3.877727">
<ele>264</ele>
<time>2020-08-28T17:38:46Z</time></trkpt>
<trkpt lat="57.137075" lon="-3.877533">
<ele>262</ele>
<time>2020-08-28T17:39:10Z</time></trkpt>
<trkpt lat="57.137391" lon="-3.876974">
<ele>262</ele>
<time>2020-08-28T17:39:44Z</time></trkpt>
<trkpt lat="57.137573" lon="-3.876338">
<ele>262</ele>
<time>2020-08-28T17:40:13Z</time></trkpt>
<trkpt lat="57.137723" lon="-3.87567">
<ele>263</ele>
<time>2020-08-28T17:40:43Z</time></trkpt>
<trkpt lat="57.137845" lon="-3.874892">
<ele>262</ele>
<time>2020-08-28T17:41:12Z</time></trkpt>
<trkpt lat="57.138056" lon="-3.874148">
<ele>258</ele>
<time>2020-08-28T17:41:41Z</time></trkpt>
<trkpt lat="57.138565" lon="-3.873175">
<ele>248</ele>
<time>2020-08-28T17:42:28Z</time></trkpt>
<trkpt lat="57.138986" lon="-3.872307">
<ele>247</ele>
<time>2020-08-28T17:43:12Z</time></trkpt>
<trkpt lat="57.139189" lon="-3.871418">
<ele>245</ele>
<time>2020-08-28T17:43:53Z</time></trkpt>
<trkpt lat="57.1395" lon="-3.870692">
<ele>244</ele>
<time>2020-08-28T17:44:33Z</time></trkpt>
<trkpt lat="57.139983" lon="-3.870422">
<ele>245</ele>
<time>2020-08-28T17:45:13Z</time></trkpt>
<trkpt lat="57.140618" lon="-3.86992">
<ele>246</ele>
<time>2020-08-28T17:46:10Z</time></trkpt>
<trkpt lat="57.14089" lon="-3.869385">
<ele>246</ele>
<time>2020-08-28T17:46:43Z</time></trkpt>
<trkpt lat="57.141084" lon="-3.867854">
<ele>247</ele>
<time>2020-08-28T17:47:54Z</time></trkpt>
<trkpt lat="57.141446" lon="-3.866169">
<ele>243</ele>
<time>2020-08-28T17:49:03Z</time></trkpt>
<trkpt lat="57.142645" lon="-3.862059">
<ele>229</ele>
<time>2020-08-28T17:52:04Z</time></trkpt>
<trkpt lat="57.142636" lon="-3.861138">
<ele>231</ele>
<time>2020-08-28T17:52:47Z</time></trkpt>
<trkpt lat="57.142593" lon="-3.860332">
<ele>234</ele>
<time>2020-08-28T17:53:33Z</time></trkpt>
<trkpt lat="57.142679" lon="-3.859657">
<ele>234</ele>
<time>2020-08-28T17:54:12Z</time></trkpt>
<trkpt lat="57.142727" lon="-3.859027">
<ele>235</ele>
<time>2020-08-28T17:54:48Z</time></trkpt>
<trkpt lat="57.14288" lon="-3.858202">
<ele>238</ele>
<time>2020-08-28T17:55:37Z</time></trkpt>
<trkpt lat="57.143086" lon="-3.857818">
<ele>236</ele>
<time>2020-08-28T17:55:59Z</time></trkpt>
<trkpt lat="57.143793" lon="-3.857132">
<ele>229</ele>
<time>2020-08-28T17:56:54Z</time></trkpt>
<trkpt lat="57.144425" lon="-3.856348">
<ele>227</ele>
<time>2020-08-28T17:57:46Z</time></trkpt>
<trkpt lat="57.144995" lon="-3.855493">
<ele>226</ele>
<time>2020-08-28T17:58:44Z</time></trkpt>
<trkpt lat="57.145578" lon="-3.854955">
<ele>225</ele>
<time>2020-08-28T17:59:35Z</time></trkpt>
<trkpt lat="57.146044" lon="-3.854411">
<ele>226</ele>
<time>2020-08-28T18:00:19Z</time></trkpt>
<trkpt lat="57.146206" lon="-3.854333">
<ele>225</ele>
<time>2020-08-28T18:00:33Z</time></trkpt>
<trkpt lat="57.146589" lon="-3.853686">
<ele>230</ele>
<time>2020-08-28T18:01:20Z</time></trkpt>
<trkpt lat="57.146748" lon="-3.853578">
<ele>230</ele>
<time>2020-08-28T18:01:35Z</time></trkpt>
<trkpt lat="57.146941" lon="-3.853609">
<ele>228</ele>
<time>2020-08-28T18:01:52Z</time></trkpt>
<trkpt lat="57.147235" lon="-3.853598">
<ele>225</ele>
<time>2020-08-28T18:02:18Z</time></trkpt>
<trkpt lat="57.147645" lon="-3.852974">
<ele>229</ele>
<time>2020-08-28T18:03:06Z</time></trkpt>
<trkpt lat="57.147907" lon="-3.852783">
<ele>229</ele>
<time>2020-08-28T18:03:30Z</time></trkpt>
<trkpt lat="57.148354" lon="-3.852405">
<ele>230</ele>
<time>2020-08-28T18:04:12Z</time></trkpt>
<trkpt lat="57.148529" lon="-3.852182">
<ele>230</ele>
<time>2020-08-28T18:04:31Z</time></trkpt>
<trkpt lat="57.148587" lon="-3.852024">
<ele>232</ele>
<time>2020-08-28T18:04:40Z</time></trkpt>
<trkpt lat="57.149375" lon="-3.851207">
<ele>231</ele>
<time>2020-08-28T18:05:57Z</time></trkpt>
<trkpt lat="57.149699" lon="-3.850815">
<ele>233</ele>
<time>2020-08-28T18:06:27Z</time></trkpt>
<trkpt lat="57.151217" lon="-3.849401">
<ele>227</ele>
<time>2020-08-28T18:08:44Z</time></trkpt>
<trkpt lat="57.151753" lon="-3.84827">
<ele>229</ele>
<time>2020-08-28T18:09:59Z</time></trkpt>
<trkpt lat="57.15198" lon="-3.847908">
<ele>232</ele>
<time>2020-08-28T18:10:26Z</time></trkpt>
<trkpt lat="57.152874" lon="-3.847007">
<ele>237</ele>
<time>2020-08-28T18:11:59Z</time></trkpt>
<trkpt lat="57.153347" lon="-3.846884">
<ele>234</ele>
<time>2020-08-28T18:12:41Z</time></trkpt>
<trkpt lat="57.153806" lon="-3.846506">
<ele>233</ele>
<time>2020-08-28T18:13:26Z</time></trkpt>
<trkpt lat="57.154034" lon="-3.846165">
<ele>234</ele>
<time>2020-08-28T18:13:52Z</time></trkpt>
<trkpt lat="57.154164" lon="-3.845834">
<ele>237</ele>
<time>2020-08-28T18:14:11Z</time></trkpt>
<trkpt lat="57.154647" lon="-3.845001">
<ele>241</ele>
<time>2020-08-28T18:15:03Z</time></trkpt>
<trkpt lat="57.155401" lon="-3.844636">
<ele>234</ele>
<time>2020-08-28T18:16:05Z</time></trkpt>
<trkpt lat="57.156035" lon="-3.844217">
<ele>235</ele>
<time>2020-08-28T18:16:57Z</time></trkpt>
<trkpt lat="57.156353" lon="-3.844195">
<ele>233</ele>
<time>2020-08-28T18:17:21Z</time></trkpt>
<trkpt lat="57.156677" lon="-3.844396">
<ele>230</ele>
<time>2020-08-28T18:17:47Z</time></trkpt>
<trkpt lat="57.157166" lon="-3.844765">
<ele>230</ele>
<time>2020-08-28T18:18:27Z</time></trkpt>
<trkpt lat="57.157468" lon="-3.844616">
<ele>231</ele>
<time>2020-08-28T18:18:51Z</time></trkpt>
<trkpt lat="57.158401" lon="-3.844014">
<ele>235</ele>
<time>2020-08-28T18:20:30Z</time></trkpt>
<trkpt lat="57.158887" lon="-3.843754">
<ele>236</ele>
<time>2020-08-28T18:21:21Z</time></trkpt>
<trkpt lat="57.159005" lon="-3.843542">
<ele>237</ele>
<time>2020-08-28T18:21:38Z</time></trkpt>
<trkpt lat="57.161917" lon="-3.840282">
<ele>232</ele>
<time>2020-08-28T18:25:59Z</time></trkpt>
<trkpt lat="57.162211" lon="-3.839821">
<ele>229</ele>
<time>2020-08-28T18:26:27Z</time></trkpt>
<trkpt lat="57.162323" lon="-3.839324">
<ele>227</ele>
<time>2020-08-28T18:26:49Z</time></trkpt>
<trkpt lat="57.162247" lon="-3.83834">
<ele>229</ele>
<time>2020-08-28T18:27:34Z</time></trkpt>
<trkpt lat="57.162308" lon="-3.83793">
<ele>230</ele>
<time>2020-08-28T18:27:53Z</time></trkpt>
<trkpt lat="57.162444" lon="-3.837657">
<ele>230</ele>
<time>2020-08-28T18:28:10Z</time></trkpt>
<trkpt lat="57.163227" lon="-3.837692">
<ele>228</ele>
<time>2020-08-28T18:29:15Z</time></trkpt>
<trkpt lat="57.163384" lon="-3.837633">
<ele>228</ele>
<time>2020-08-28T18:29:29Z</time></trkpt>
<trkpt lat="57.163532" lon="-3.837488">
<ele>229</ele>
<time>2020-08-28T18:29:45Z</time></trkpt>
<trkpt lat="57.164388" lon="-3.83619">
<ele>231</ele>
<time>2020-08-28T18:31:30Z</time></trkpt>
<trkpt lat="57.164457" lon="-3.836043">
<ele>231</ele>
<time>2020-08-28T18:31:40Z</time></trkpt>
<trkpt lat="57.1647" lon="-3.835739">
<ele>232</ele>
<time>2020-08-28T18:32:08Z</time></trkpt>
<trkpt lat="57.165595" lon="-3.834473">
<ele>237</ele>
<time>2020-08-28T18:33:41Z</time></trkpt>
<trkpt lat="57.165796" lon="-3.834332">
<ele>237</ele>
<time>2020-08-28T18:33:58Z</time></trkpt>
<trkpt lat="57.166469" lon="-3.833536">
<ele>233</ele>
<time>2020-08-28T18:35:01Z</time></trkpt>
<trkpt lat="57.166716" lon="-3.833276">
<ele>231</ele>
<time>2020-08-28T18:35:23Z</time></trkpt>
<trkpt lat="57.166846" lon="-3.833088">
<ele>230</ele>
<time>2020-08-28T18:35:35Z</time></trkpt>
<trkpt lat="57.166987" lon="-3.832835">
<ele>228</ele>
<time>2020-08-28T18:35:50Z</time></trkpt>
<trkpt lat="57.167154" lon="-3.832464">
<ele>227</ele>
<time>2020-08-28T18:36:09Z</time></trkpt>
<trkpt lat="57.167545" lon="-3.831352">
<ele>228</ele>
<time>2020-08-28T18:37:03Z</time></trkpt>
<trkpt lat="57.167682" lon="-3.830815">
<ele>228</ele>
<time>2020-08-28T18:37:25Z</time></trkpt>
<trkpt lat="57.167732" lon="-3.830485">
<ele>226</ele>
<time>2020-08-28T18:37:38Z</time></trkpt>
<trkpt lat="57.167762" lon="-3.83004">
<ele>224</ele>
<time>2020-08-28T18:37:54Z</time></trkpt>
<trkpt lat="57.16782" lon="-3.829699">
<ele>222</ele>
<time>2020-08-28T18:38:06Z</time></trkpt>
<trkpt lat="57.168173" lon="-3.828658">
<ele>215</ele>
<time>2020-08-28T18:38:50Z</time></trkpt>
<trkpt lat="57.168332" lon="-3.828376">
<ele>214</ele>
<time>2020-08-28T18:39:04Z</time></trkpt>
<trkpt lat="57.168435" lon="-3.828061">
<ele>214</ele>
<time>2020-08-28T18:39:17Z</time></trkpt>
<trkpt lat="57.168635" lon="-3.826793">
<ele>217</ele>
<time>2020-08-28T18:40:19Z</time></trkpt>
<trkpt lat="57.168703" lon="-3.826546">
<ele>217</ele>
<time>2020-08-28T18:40:32Z</time></trkpt>
<trkpt lat="57.168792" lon="-3.826356">
<ele>218</ele>
<time>2020-08-28T18:40:44Z</time></trkpt>
<trkpt lat="57.168911" lon="-3.826274">
<ele>218</ele>
<time>2020-08-28T18:40:55Z</time></trkpt>
<trkpt lat="57.169459" lon="-3.826211">
<ele>216</ele>
<time>2020-08-28T18:41:42Z</time></trkpt>
<trkpt lat="57.169606" lon="-3.826121">
<ele>216</ele>
<time>2020-08-28T18:41:55Z</time></trkpt>
<trkpt lat="57.169958" lon="-3.825512">
<ele>219</ele>
<time>2020-08-28T18:42:38Z</time></trkpt>
<trkpt lat="57.170091" lon="-3.825502">
<ele>218</ele>
<time>2020-08-28T18:42:50Z</time></trkpt>
<trkpt lat="57.170273" lon="-3.825579">
<ele>217</ele>
<time>2020-08-28T18:43:07Z</time></trkpt>
<trkpt lat="57.170465" lon="-3.825608">
<ele>217</ele>
<time>2020-08-28T18:43:24Z</time></trkpt>
<trkpt lat="57.170621" lon="-3.825575">
<ele>216</ele>
<time>2020-08-28T18:43:38Z</time></trkpt>
<trkpt lat="57.170791" lon="-3.825368">
<ele>217</ele>
<time>2020-08-28T18:43:56Z</time></trkpt>
<trkpt lat="57.170872" lon="-3.825218">
<ele>217</ele>
<time>2020-08-28T18:44:06Z</time></trkpt>
<trkpt lat="57.171327" lon="-3.82457">
<ele>219</ele>
<time>2020-08-28T18:44:56Z</time></trkpt>
<trkpt lat="57.171793" lon="-3.8243">
<ele>218</ele>
<time>2020-08-28T18:45:34Z</time></trkpt>
<trkpt lat="57.172025" lon="-3.824122">
<ele>217</ele>
<time>2020-08-28T18:45:53Z</time></trkpt>
<trkpt lat="57.172249" lon="-3.823855">
<ele>216</ele>
<time>2020-08-28T18:46:14Z</time></trkpt>
<trkpt lat="57.172472" lon="-3.823656">
<ele>216</ele>
<time>2020-08-28T18:46:33Z</time></trkpt>
<trkpt lat="57.17308" lon="-3.822932">
<ele>216</ele>
<time>2020-08-28T18:47:29Z</time></trkpt>
<trkpt lat="57.173908" lon="-3.821649">
<ele>216</ele>
<time>2020-08-28T18:48:54Z</time></trkpt>
<trkpt lat="57.175002" lon="-3.820283">
<ele>216</ele>
<time>2020-08-28T18:50:52Z</time></trkpt>
<trkpt lat="57.176013" lon="-3.819656">
<ele>221</ele>
<time>2020-08-28T18:52:37Z</time></trkpt>
<trkpt lat="57.17632" lon="-3.819495">
<ele>222</ele>
<time>2020-08-28T18:53:05Z</time></trkpt>
<trkpt lat="57.176407" lon="-3.819662">
<ele>223</ele>
<time>2020-08-28T18:53:16Z</time></trkpt>
<trkpt lat="57.176476" lon="-3.819727">
<ele>223</ele>
<time>2020-08-28T18:53:22Z</time></trkpt>
<trkpt lat="57.176784" lon="-3.819857">
<ele>225</ele>
<time>2020-08-28T18:53:48Z</time></trkpt>
<trkpt lat="57.177302" lon="-3.820344">
<ele>224</ele>
<time>2020-08-28T18:54:37Z</time></trkpt>
<trkpt lat="57.177415" lon="-3.820142">
<ele>224</ele>
<time>2020-08-28T18:54:50Z</time></trkpt>
<trkpt lat="57.178578" lon="-3.822228">
<ele>221</ele>
<time>2020-08-28T18:56:56Z</time></trkpt>
<trkpt lat="57.180346" lon="-3.824914">
<ele>211</ele>
<time>2020-08-28T18:59:45Z</time></trkpt>
<trkpt lat="57.180383" lon="-3.824867">
<ele>211</ele>
<time>2020-08-28T18:59:48Z</time></trkpt>
<trkpt lat="57.180708" lon="-3.825339">
<ele>212</ele>
<time>2020-08-28T19:00:21Z</time></trkpt>
<trkpt lat="57.181107" lon="-3.826011">
<ele>212</ele>
<time>2020-08-28T19:01:09Z</time></trkpt>
<trkpt lat="57.181741" lon="-3.827021">
<ele>214</ele>
<time>2020-08-28T19:02:24Z</time></trkpt>
<trkpt lat="57.182138" lon="-3.827549">
<ele>214</ele>
<time>2020-08-28T19:03:06Z</time></trkpt>
<trkpt lat="57.182497" lon="-3.828205">
<ele>214</ele>
<time>2020-08-28T19:03:46Z</time></trkpt>
<trkpt lat="57.182623" lon="-3.828526">
<ele>213</ele>
<time>2020-08-28T19:04:04Z</time></trkpt>
<trkpt lat="57.182877" lon="-3.829892">
<ele>212</ele>
<time>2020-08-28T19:05:06Z</time></trkpt>
<trkpt lat="57.183012" lon="-3.830258">
<ele>214</ele>
<time>2020-08-28T19:05:26Z</time></trkpt>
<trkpt lat="57.183437" lon="-3.830332">
<ele>214</ele>
<time>2020-08-28T19:06:02Z</time></trkpt>
<trkpt lat="57.183662" lon="-3.830316">
<ele>215</ele>
<time>2020-08-28T19:06:22Z</time></trkpt>
<trkpt lat="57.184429" lon="-3.829877">
<ele>214</ele>
<time>2020-08-28T19:07:31Z</time></trkpt>
<trkpt lat="57.184565" lon="-3.830117">
<ele>216</ele>
<time>2020-08-28T19:07:47Z</time></trkpt>
<trkpt lat="57.184704" lon="-3.830107">
<ele>216</ele>
<time>2020-08-28T19:07:59Z</time></trkpt>
<trkpt lat="57.185203" lon="-3.829773">
<ele>216</ele>
<time>2020-08-28T19:08:41Z</time></trkpt>
<trkpt lat="57.185366" lon="-3.829783">
<ele>216</ele>
<time>2020-08-28T19:08:54Z</time></trkpt>
<trkpt lat="57.185925" lon="-3.829438">
<ele>215</ele>
<time>2020-08-28T19:09:40Z</time></trkpt>
<trkpt lat="57.186238" lon="-3.829328">
<ele>214</ele>
<time>2020-08-28T19:10:05Z</time></trkpt>
<trkpt lat="57.186567" lon="-3.829299">
<ele>214</ele>
<time>2020-08-28T19:10:30Z</time></trkpt>
<trkpt lat="57.187978" lon="-3.829469">
<ele>215</ele>
<time>2020-08-28T19:12:32Z</time></trkpt>
<trkpt lat="57.188259" lon="-3.829468">
<ele>215</ele>
<time>2020-08-28T19:12:56Z</time></trkpt>
<trkpt lat="57.189648" lon="-3.829351">
<ele>215</ele>
<time>2020-08-28T19:14:46Z</time></trkpt>
<trkpt lat="57.190379" lon="-3.829214">
<ele>214</ele>
<time>2020-08-28T19:15:44Z</time></trkpt>
<trkpt lat="57.19118" lon="-3.829015">
<ele>215</ele>
<time>2020-08-28T19:16:53Z</time></trkpt>
<trkpt lat="57.191462" lon="-3.828995">
<ele>215</ele>
<time>2020-08-28T19:17:18Z</time></trkpt>
<trkpt lat="57.191552" lon="-3.829067">
<ele>216</ele>
<time>2020-08-28T19:17:26Z</time></trkpt>
<trkpt lat="57.191541" lon="-3.829189">
<ele>216</ele>
<time>2020-08-28T19:17:32Z</time></trkpt>
<trkpt lat="57.191573" lon="-3.829306">
<ele>216</ele>
<time>2020-08-28T19:17:38Z</time></trkpt>
<trkpt lat="57.191661" lon="-3.829366">
<ele>216</ele>
<time>2020-08-28T19:17:46Z</time></trkpt>
<trkpt lat="57.191696" lon="-3.829351">
<ele>216</ele>
<time>2020-08-28T19:17:49Z</time></trkpt>
<trkpt lat="57.191752" lon="-3.829255">
<ele>216</ele>
<time>2020-08-28T19:17:56Z</time></trkpt>
<trkpt lat="57.191762" lon="-3.829112">
<ele>216</ele>
<time>2020-08-28T19:18:02Z</time></trkpt>
<trkpt lat="57.191747" lon="-3.829046">
<ele>216</ele>
<time>2020-08-28T19:18:06Z</time></trkpt>
<trkpt lat="57.1919" lon="-3.82888">
<ele>216</ele>
<time>2020-08-28T19:18:21Z</time></trkpt>
<trkpt lat="57.192405" lon="-3.828768">
<ele>216</ele>
<time>2020-08-28T19:19:05Z</time></trkpt>
<trkpt lat="57.192678" lon="-3.828741">
<ele>217</ele>
<time>2020-08-28T19:19:28Z</time></trkpt>
<trkpt lat="57.194239" lon="-3.829079">
<ele>218</ele>
<time>2020-08-28T19:21:41Z</time></trkpt>
<trkpt lat="57.196576" lon="-3.829135">
<ele>217</ele>
<time>2020-08-28T19:24:48Z</time></trkpt>
<trkpt lat="57.197873" lon="-3.828995">
<ele>217</ele>
<time>2020-08-28T19:26:30Z</time></trkpt>
<trkpt lat="57.199817" lon="-3.828489">
<ele>217</ele>
<time>2020-08-28T19:29:09Z</time></trkpt>
<trkpt lat="57.201059" lon="-3.827978">
<ele>219</ele>
<time>2020-08-28T19:31:02Z</time></trkpt>
<trkpt lat="57.202889" lon="-3.827133">
<ele>223</ele>
<time>2020-08-28T19:33:55Z</time></trkpt>
<trkpt lat="57.203301" lon="-3.826975">
<ele>223</ele>
<time>2020-08-28T19:34:32Z</time></trkpt>
<trkpt lat="57.203768" lon="-3.826844">
<ele>222</ele>
<time>2020-08-28T19:35:09Z</time></trkpt>
<trkpt lat="57.204723" lon="-3.826803">
<ele>221</ele>
<time>2020-08-28T19:36:23Z</time></trkpt>
<trkpt lat="57.205564" lon="-3.826807">
<ele>222</ele>
<time>2020-08-28T19:37:35Z</time></trkpt>
<trkpt lat="57.205836" lon="-3.826757">
<ele>223</ele>
<time>2020-08-28T19:37:59Z</time></trkpt>
<trkpt lat="57.206025" lon="-3.826678">
<ele>224</ele>
<time>2020-08-28T19:38:17Z</time></trkpt>
<trkpt lat="57.206339" lon="-3.826412">
<ele>224</ele>
<time>2020-08-28T19:38:47Z</time></trkpt>
<trkpt lat="57.207227" lon="-3.825398">
<ele>222</ele>
<time>2020-08-28T19:40:15Z</time></trkpt>
<trkpt lat="57.207651" lon="-3.825098">
<ele>221</ele>
<time>2020-08-28T19:40:50Z</time></trkpt>
<trkpt lat="57.208623" lon="-3.824676">
<ele>222</ele>
<time>2020-08-28T19:42:08Z</time></trkpt>
<trkpt lat="57.209581" lon="-3.824224">
<ele>230</ele>
<time>2020-08-28T19:43:27Z</time></trkpt>
<trkpt lat="57.210128" lon="-3.82368">
<ele>233</ele>
<time>2020-08-28T19:44:17Z</time></trkpt>
</trkseg>
</trk>
</gpx>